<?xml version="1.0" encoding="UTF-8"?>
<gpx xmlns:xsi="http://www.w3.org/2001/XMLSchema-instance" xsi:schemaLocation="http://www.topografix.com/GPX/1/1 http://www.topografix.com/GPX/1/1/gpx.xsd" creator="StravaGPX" version="1.1" xmlns="http://www.topografix.com/GPX/1/1">
 <metadata>
  <time>2025-12-27T12:00:42Z</time>
 </metadata>
 <trk>
  <name>Kylemore</name>
  <type>walking</type>
  <trkseg>
   <trkpt lat="53.5592370" lon="-9.8914060">
    <ele>31.8</ele>
    <time>2025-12-27T12:00:42Z</time>
   </trkpt>
   <trkpt lat="53.5592830" lon="-9.8914150">
    <ele>31.8</ele>
    <time>2025-12-27T12:01:21Z</time>
   </trkpt>
   <trkpt lat="53.5593630" lon="-9.8914110">
    <ele>31.8</ele>
    <time>2025-12-27T12:01:26Z</time>
   </trkpt>
   <trkpt lat="53.5594270" lon="-9.8913040">
    <ele>31.8</ele>
    <time>2025-12-27T12:01:32Z</time>
   </trkpt>
   <trkpt lat="53.5594760" lon="-9.8912180">
    <ele>31.8</ele>
    <time>2025-12-27T12:01:37Z</time>
   </trkpt>
   <trkpt lat="53.5595160" lon="-9.8911820">
    <ele>31.8</ele>
    <time>2025-12-27T12:01:43Z</time>
   </trkpt>
   <trkpt lat="53.5595420" lon="-9.8910900">
    <ele>31.8</ele>
    <time>2025-12-27T12:01:48Z</time>
   </trkpt>
   <trkpt lat="53.5595820" lon="-9.8910530">
    <ele>31.8</ele>
    <time>2025-12-27T12:01:53Z</time>
   </trkpt>
   <trkpt lat="53.5596270" lon="-9.8910140">
    <ele>31.8</ele>
    <time>2025-12-27T12:01:59Z</time>
   </trkpt>
   <trkpt lat="53.5596880" lon="-9.8910350">
    <ele>31.8</ele>
    <time>2025-12-27T12:02:05Z</time>
   </trkpt>
   <trkpt lat="53.5597280" lon="-9.8910700">
    <ele>31.8</ele>
    <time>2025-12-27T12:02:20Z</time>
   </trkpt>
   <trkpt lat="53.5597220" lon="-9.8911460">
    <ele>31.8</ele>
    <time>2025-12-27T12:02:43Z</time>
   </trkpt>
   <trkpt lat="53.5597430" lon="-9.8912360">
    <ele>31.8</ele>
    <time>2025-12-27T12:02:48Z</time>
   </trkpt>
   <trkpt lat="53.5597780" lon="-9.8912880">
    <ele>31.8</ele>
    <time>2025-12-27T12:02:53Z</time>
   </trkpt>
   <trkpt lat="53.5598410" lon="-9.8913300">
    <ele>31.8</ele>
    <time>2025-12-27T12:02:59Z</time>
   </trkpt>
   <trkpt lat="53.5598940" lon="-9.8914500">
    <ele>31.8</ele>
    <time>2025-12-27T12:03:04Z</time>
   </trkpt>
   <trkpt lat="53.5599430" lon="-9.8915640">
    <ele>31.8</ele>
    <time>2025-12-27T12:03:10Z</time>
   </trkpt>
   <trkpt lat="53.5598990" lon="-9.8915990">
    <ele>31.8</ele>
    <time>2025-12-27T12:03:16Z</time>
   </trkpt>
   <trkpt lat="53.5599470" lon="-9.8916170">
    <ele>31.8</ele>
    <time>2025-12-27T12:03:35Z</time>
   </trkpt>
   <trkpt lat="53.5600070" lon="-9.8916740">
    <ele>31.8</ele>
    <time>2025-12-27T12:03:40Z</time>
   </trkpt>
   <trkpt lat="53.5600740" lon="-9.8917260">
    <ele>31.8</ele>
    <time>2025-12-27T12:03:45Z</time>
   </trkpt>
   <trkpt lat="53.5601410" lon="-9.8917290">
    <ele>31.8</ele>
    <time>2025-12-27T12:03:51Z</time>
   </trkpt>
   <trkpt lat="53.5601800" lon="-9.8917880">
    <ele>31.8</ele>
    <time>2025-12-27T12:03:56Z</time>
   </trkpt>
   <trkpt lat="53.5602220" lon="-9.8918570">
    <ele>31.8</ele>
    <time>2025-12-27T12:04:01Z</time>
   </trkpt>
   <trkpt lat="53.5602480" lon="-9.8919240">
    <ele>32.0</ele>
    <time>2025-12-27T12:04:17Z</time>
   </trkpt>
   <trkpt lat="53.5602040" lon="-9.8919460">
    <ele>32.2</ele>
    <time>2025-12-27T12:04:45Z</time>
   </trkpt>
   <trkpt lat="53.5601460" lon="-9.8919760">
    <ele>32.1</ele>
    <time>2025-12-27T12:05:25Z</time>
   </trkpt>
   <trkpt lat="53.5601990" lon="-9.8919330">
    <ele>32.2</ele>
    <time>2025-12-27T12:05:31Z</time>
   </trkpt>
   <trkpt lat="53.5601520" lon="-9.8919630">
    <ele>32.2</ele>
    <time>2025-12-27T12:05:36Z</time>
   </trkpt>
   <trkpt lat="53.5601920" lon="-9.8919240">
    <ele>32.2</ele>
    <time>2025-12-27T12:05:43Z</time>
   </trkpt>
   <trkpt lat="53.5601890" lon="-9.8918450">
    <ele>32.2</ele>
    <time>2025-12-27T12:06:45Z</time>
   </trkpt>
   <trkpt lat="53.5601310" lon="-9.8917080">
    <ele>32.0</ele>
    <time>2025-12-27T12:06:50Z</time>
   </trkpt>
   <trkpt lat="53.5601580" lon="-9.8915690">
    <ele>31.9</ele>
    <time>2025-12-27T12:06:56Z</time>
   </trkpt>
   <trkpt lat="53.5601460" lon="-9.8914370">
    <ele>31.9</ele>
    <time>2025-12-27T12:07:01Z</time>
   </trkpt>
   <trkpt lat="53.5601440" lon="-9.8913120">
    <ele>31.8</ele>
    <time>2025-12-27T12:07:06Z</time>
   </trkpt>
   <trkpt lat="53.5601670" lon="-9.8912010">
    <ele>31.8</ele>
    <time>2025-12-27T12:07:12Z</time>
   </trkpt>
   <trkpt lat="53.5602120" lon="-9.8911020">
    <ele>31.7</ele>
    <time>2025-12-27T12:07:17Z</time>
   </trkpt>
   <trkpt lat="53.5602620" lon="-9.8910040">
    <ele>31.8</ele>
    <time>2025-12-27T12:07:23Z</time>
   </trkpt>
   <trkpt lat="53.5603130" lon="-9.8909260">
    <ele>31.7</ele>
    <time>2025-12-27T12:07:28Z</time>
   </trkpt>
   <trkpt lat="53.5603610" lon="-9.8908960">
    <ele>31.7</ele>
    <time>2025-12-27T12:07:34Z</time>
   </trkpt>
   <trkpt lat="53.5603970" lon="-9.8909600">
    <ele>31.7</ele>
    <time>2025-12-27T12:07:48Z</time>
   </trkpt>
   <trkpt lat="53.5604680" lon="-9.8910050">
    <ele>31.6</ele>
    <time>2025-12-27T12:07:53Z</time>
   </trkpt>
   <trkpt lat="53.5605450" lon="-9.8910010">
    <ele>31.6</ele>
    <time>2025-12-27T12:07:58Z</time>
   </trkpt>
   <trkpt lat="53.5606140" lon="-9.8910220">
    <ele>31.5</ele>
    <time>2025-12-27T12:08:03Z</time>
   </trkpt>
   <trkpt lat="53.5606890" lon="-9.8910420">
    <ele>31.5</ele>
    <time>2025-12-27T12:08:09Z</time>
   </trkpt>
   <trkpt lat="53.5607710" lon="-9.8910480">
    <ele>31.6</ele>
    <time>2025-12-27T12:08:14Z</time>
   </trkpt>
   <trkpt lat="53.5608550" lon="-9.8910670">
    <ele>31.7</ele>
    <time>2025-12-27T12:08:20Z</time>
   </trkpt>
   <trkpt lat="53.5609140" lon="-9.8910580">
    <ele>31.7</ele>
    <time>2025-12-27T12:08:25Z</time>
   </trkpt>
   <trkpt lat="53.5609700" lon="-9.8910820">
    <ele>31.7</ele>
    <time>2025-12-27T12:08:30Z</time>
   </trkpt>
   <trkpt lat="53.5609920" lon="-9.8911970">
    <ele>31.7</ele>
    <time>2025-12-27T12:08:36Z</time>
   </trkpt>
   <trkpt lat="53.5610110" lon="-9.8912830">
    <ele>31.7</ele>
    <time>2025-12-27T12:08:41Z</time>
   </trkpt>
   <trkpt lat="53.5610510" lon="-9.8912470">
    <ele>31.7</ele>
    <time>2025-12-27T12:09:08Z</time>
   </trkpt>
   <trkpt lat="53.5610480" lon="-9.8911700">
    <ele>31.7</ele>
    <time>2025-12-27T12:09:26Z</time>
   </trkpt>
   <trkpt lat="53.5610980" lon="-9.8911270">
    <ele>31.8</ele>
    <time>2025-12-27T12:09:37Z</time>
   </trkpt>
   <trkpt lat="53.5611410" lon="-9.8910720">
    <ele>31.9</ele>
    <time>2025-12-27T12:10:11Z</time>
   </trkpt>
   <trkpt lat="53.5611760" lon="-9.8910120">
    <ele>32.3</ele>
    <time>2025-12-27T12:10:18Z</time>
   </trkpt>
   <trkpt lat="53.5612380" lon="-9.8909610">
    <ele>32.7</ele>
    <time>2025-12-27T12:10:23Z</time>
   </trkpt>
   <trkpt lat="53.5613140" lon="-9.8909130">
    <ele>33.0</ele>
    <time>2025-12-27T12:10:29Z</time>
   </trkpt>
   <trkpt lat="53.5613580" lon="-9.8908940">
    <ele>33.2</ele>
    <time>2025-12-27T12:10:45Z</time>
   </trkpt>
   <trkpt lat="53.5614150" lon="-9.8908750">
    <ele>33.2</ele>
    <time>2025-12-27T12:10:50Z</time>
   </trkpt>
   <trkpt lat="53.5614590" lon="-9.8909020">
    <ele>33.2</ele>
    <time>2025-12-27T12:11:06Z</time>
   </trkpt>
   <trkpt lat="53.5615080" lon="-9.8909020">
    <ele>33.2</ele>
    <time>2025-12-27T12:11:12Z</time>
   </trkpt>
   <trkpt lat="53.5615230" lon="-9.8908110">
    <ele>33.2</ele>
    <time>2025-12-27T12:11:17Z</time>
   </trkpt>
   <trkpt lat="53.5615120" lon="-9.8906940">
    <ele>33.2</ele>
    <time>2025-12-27T12:11:23Z</time>
   </trkpt>
   <trkpt lat="53.5614890" lon="-9.8905790">
    <ele>33.2</ele>
    <time>2025-12-27T12:11:28Z</time>
   </trkpt>
   <trkpt lat="53.5614670" lon="-9.8904670">
    <ele>33.2</ele>
    <time>2025-12-27T12:11:33Z</time>
   </trkpt>
   <trkpt lat="53.5614470" lon="-9.8903610">
    <ele>33.2</ele>
    <time>2025-12-27T12:11:38Z</time>
   </trkpt>
   <trkpt lat="53.5614360" lon="-9.8902510">
    <ele>33.2</ele>
    <time>2025-12-27T12:11:44Z</time>
   </trkpt>
   <trkpt lat="53.5614310" lon="-9.8901450">
    <ele>33.2</ele>
    <time>2025-12-27T12:11:49Z</time>
   </trkpt>
   <trkpt lat="53.5614570" lon="-9.8900720">
    <ele>33.3</ele>
    <time>2025-12-27T12:12:01Z</time>
   </trkpt>
   <trkpt lat="53.5614450" lon="-9.8899110">
    <ele>33.3</ele>
    <time>2025-12-27T12:12:06Z</time>
   </trkpt>
   <trkpt lat="53.5614660" lon="-9.8897890">
    <ele>33.3</ele>
    <time>2025-12-27T12:12:12Z</time>
   </trkpt>
   <trkpt lat="53.5615150" lon="-9.8896960">
    <ele>33.3</ele>
    <time>2025-12-27T12:12:17Z</time>
   </trkpt>
   <trkpt lat="53.5615760" lon="-9.8896710">
    <ele>34.0</ele>
    <time>2025-12-27T12:12:22Z</time>
   </trkpt>
   <trkpt lat="53.5616340" lon="-9.8896510">
    <ele>35.2</ele>
    <time>2025-12-27T12:12:27Z</time>
   </trkpt>
   <trkpt lat="53.5616910" lon="-9.8896240">
    <ele>35.7</ele>
    <time>2025-12-27T12:12:32Z</time>
   </trkpt>
   <trkpt lat="53.5617370" lon="-9.8895960">
    <ele>35.9</ele>
    <time>2025-12-27T12:12:39Z</time>
   </trkpt>
   <trkpt lat="53.5616860" lon="-9.8896190">
    <ele>36.0</ele>
    <time>2025-12-27T12:12:57Z</time>
   </trkpt>
   <trkpt lat="53.5617320" lon="-9.8896280">
    <ele>36.4</ele>
    <time>2025-12-27T12:14:03Z</time>
   </trkpt>
   <trkpt lat="53.5617030" lon="-9.8891120">
    <ele>39.3</ele>
    <time>2025-12-27T12:48:27Z</time>
   </trkpt>
   <trkpt lat="53.5614690" lon="-9.8894140">
    <ele>37.8</ele>
    <time>2025-12-27T13:12:29Z</time>
   </trkpt>
   <trkpt lat="53.5614870" lon="-9.8892180">
    <ele>38.3</ele>
    <time>2025-12-27T13:12:34Z</time>
   </trkpt>
   <trkpt lat="53.5614420" lon="-9.8891990">
    <ele>38.6</ele>
    <time>2025-12-27T13:12:54Z</time>
   </trkpt>
   <trkpt lat="53.5614180" lon="-9.8890850">
    <ele>37.3</ele>
    <time>2025-12-27T13:12:59Z</time>
   </trkpt>
   <trkpt lat="53.5614150" lon="-9.8890010">
    <ele>37.1</ele>
    <time>2025-12-27T13:13:04Z</time>
   </trkpt>
   <trkpt lat="53.5614470" lon="-9.8889280">
    <ele>37.0</ele>
    <time>2025-12-27T13:13:23Z</time>
   </trkpt>
   <trkpt lat="53.5614660" lon="-9.8887890">
    <ele>36.5</ele>
    <time>2025-12-27T13:13:29Z</time>
   </trkpt>
   <trkpt lat="53.5614590" lon="-9.8886630">
    <ele>36.7</ele>
    <time>2025-12-27T13:13:34Z</time>
   </trkpt>
   <trkpt lat="53.5614730" lon="-9.8885680">
    <ele>36.8</ele>
    <time>2025-12-27T13:13:39Z</time>
   </trkpt>
   <trkpt lat="53.5614920" lon="-9.8884690">
    <ele>36.9</ele>
    <time>2025-12-27T13:13:44Z</time>
   </trkpt>
   <trkpt lat="53.5615050" lon="-9.8883850">
    <ele>36.5</ele>
    <time>2025-12-27T13:13:50Z</time>
   </trkpt>
   <trkpt lat="53.5615500" lon="-9.8883340">
    <ele>35.9</ele>
    <time>2025-12-27T13:13:56Z</time>
   </trkpt>
   <trkpt lat="53.5615910" lon="-9.8881980">
    <ele>35.4</ele>
    <time>2025-12-27T13:14:01Z</time>
   </trkpt>
   <trkpt lat="53.5616240" lon="-9.8881010">
    <ele>35.2</ele>
    <time>2025-12-27T13:14:06Z</time>
   </trkpt>
   <trkpt lat="53.5616380" lon="-9.8879900">
    <ele>35.0</ele>
    <time>2025-12-27T13:14:11Z</time>
   </trkpt>
   <trkpt lat="53.5616750" lon="-9.8878810">
    <ele>34.9</ele>
    <time>2025-12-27T13:14:17Z</time>
   </trkpt>
   <trkpt lat="53.5617090" lon="-9.8877920">
    <ele>34.7</ele>
    <time>2025-12-27T13:14:22Z</time>
   </trkpt>
   <trkpt lat="53.5617270" lon="-9.8877120">
    <ele>34.5</ele>
    <time>2025-12-27T13:14:28Z</time>
   </trkpt>
   <trkpt lat="53.5617380" lon="-9.8876180">
    <ele>34.5</ele>
    <time>2025-12-27T13:14:33Z</time>
   </trkpt>
   <trkpt lat="53.5617290" lon="-9.8875340">
    <ele>33.6</ele>
    <time>2025-12-27T13:14:39Z</time>
   </trkpt>
   <trkpt lat="53.5617110" lon="-9.8874570">
    <ele>32.9</ele>
    <time>2025-12-27T13:14:46Z</time>
   </trkpt>
   <trkpt lat="53.5616960" lon="-9.8873660">
    <ele>32.4</ele>
    <time>2025-12-27T13:14:52Z</time>
   </trkpt>
   <trkpt lat="53.5617010" lon="-9.8872570">
    <ele>32.1</ele>
    <time>2025-12-27T13:14:57Z</time>
   </trkpt>
   <trkpt lat="53.5617100" lon="-9.8871200">
    <ele>32.1</ele>
    <time>2025-12-27T13:15:02Z</time>
   </trkpt>
   <trkpt lat="53.5617000" lon="-9.8870380">
    <ele>32.8</ele>
    <time>2025-12-27T13:15:35Z</time>
   </trkpt>
   <trkpt lat="53.5616810" lon="-9.8869280">
    <ele>32.3</ele>
    <time>2025-12-27T13:15:40Z</time>
   </trkpt>
   <trkpt lat="53.5616620" lon="-9.8868360">
    <ele>32.0</ele>
    <time>2025-12-27T13:15:45Z</time>
   </trkpt>
   <trkpt lat="53.5616590" lon="-9.8867530">
    <ele>31.8</ele>
    <time>2025-12-27T13:15:50Z</time>
   </trkpt>
   <trkpt lat="53.5616760" lon="-9.8866510">
    <ele>31.8</ele>
    <time>2025-12-27T13:15:56Z</time>
   </trkpt>
   <trkpt lat="53.5616910" lon="-9.8865470">
    <ele>31.7</ele>
    <time>2025-12-27T13:16:01Z</time>
   </trkpt>
   <trkpt lat="53.5617010" lon="-9.8864240">
    <ele>31.5</ele>
    <time>2025-12-27T13:16:06Z</time>
   </trkpt>
   <trkpt lat="53.5617200" lon="-9.8863070">
    <ele>31.6</ele>
    <time>2025-12-27T13:16:11Z</time>
   </trkpt>
   <trkpt lat="53.5617400" lon="-9.8862010">
    <ele>31.7</ele>
    <time>2025-12-27T13:16:16Z</time>
   </trkpt>
   <trkpt lat="53.5617680" lon="-9.8861090">
    <ele>31.9</ele>
    <time>2025-12-27T13:16:21Z</time>
   </trkpt>
   <trkpt lat="53.5617910" lon="-9.8860150">
    <ele>32.0</ele>
    <time>2025-12-27T13:16:26Z</time>
   </trkpt>
   <trkpt lat="53.5618150" lon="-9.8859270">
    <ele>31.9</ele>
    <time>2025-12-27T13:16:31Z</time>
   </trkpt>
   <trkpt lat="53.5618270" lon="-9.8858530">
    <ele>31.8</ele>
    <time>2025-12-27T13:16:37Z</time>
   </trkpt>
   <trkpt lat="53.5618140" lon="-9.8857510">
    <ele>32.0</ele>
    <time>2025-12-27T13:16:42Z</time>
   </trkpt>
   <trkpt lat="53.5618210" lon="-9.8856130">
    <ele>32.0</ele>
    <time>2025-12-27T13:16:48Z</time>
   </trkpt>
   <trkpt lat="53.5618670" lon="-9.8855020">
    <ele>31.7</ele>
    <time>2025-12-27T13:16:53Z</time>
   </trkpt>
   <trkpt lat="53.5618830" lon="-9.8853960">
    <ele>31.5</ele>
    <time>2025-12-27T13:16:59Z</time>
   </trkpt>
   <trkpt lat="53.5619060" lon="-9.8853280">
    <ele>31.5</ele>
    <time>2025-12-27T13:17:06Z</time>
   </trkpt>
   <trkpt lat="53.5619110" lon="-9.8852510">
    <ele>31.5</ele>
    <time>2025-12-27T13:17:11Z</time>
   </trkpt>
   <trkpt lat="53.5619500" lon="-9.8851960">
    <ele>31.4</ele>
    <time>2025-12-27T13:18:04Z</time>
   </trkpt>
   <trkpt lat="53.5619700" lon="-9.8850670">
    <ele>31.4</ele>
    <time>2025-12-27T13:18:09Z</time>
   </trkpt>
   <trkpt lat="53.5619850" lon="-9.8849500">
    <ele>31.4</ele>
    <time>2025-12-27T13:18:15Z</time>
   </trkpt>
   <trkpt lat="53.5620010" lon="-9.8848620">
    <ele>31.5</ele>
    <time>2025-12-27T13:18:20Z</time>
   </trkpt>
   <trkpt lat="53.5620140" lon="-9.8847750">
    <ele>31.3</ele>
    <time>2025-12-27T13:18:25Z</time>
   </trkpt>
   <trkpt lat="53.5620240" lon="-9.8846510">
    <ele>31.3</ele>
    <time>2025-12-27T13:18:31Z</time>
   </trkpt>
   <trkpt lat="53.5620300" lon="-9.8845220">
    <ele>31.6</ele>
    <time>2025-12-27T13:18:36Z</time>
   </trkpt>
   <trkpt lat="53.5620400" lon="-9.8844230">
    <ele>31.9</ele>
    <time>2025-12-27T13:18:41Z</time>
   </trkpt>
   <trkpt lat="53.5620380" lon="-9.8843260">
    <ele>32.2</ele>
    <time>2025-12-27T13:18:47Z</time>
   </trkpt>
   <trkpt lat="53.5620330" lon="-9.8842400">
    <ele>32.6</ele>
    <time>2025-12-27T13:18:52Z</time>
   </trkpt>
   <trkpt lat="53.5619950" lon="-9.8841910">
    <ele>32.0</ele>
    <time>2025-12-27T13:19:31Z</time>
   </trkpt>
   <trkpt lat="53.5619680" lon="-9.8840530">
    <ele>32.1</ele>
    <time>2025-12-27T13:19:36Z</time>
   </trkpt>
   <trkpt lat="53.5619490" lon="-9.8839170">
    <ele>32.4</ele>
    <time>2025-12-27T13:19:42Z</time>
   </trkpt>
   <trkpt lat="53.5619380" lon="-9.8837840">
    <ele>32.7</ele>
    <time>2025-12-27T13:19:47Z</time>
   </trkpt>
   <trkpt lat="53.5619280" lon="-9.8836900">
    <ele>33.1</ele>
    <time>2025-12-27T13:19:52Z</time>
   </trkpt>
   <trkpt lat="53.5619270" lon="-9.8835480">
    <ele>33.7</ele>
    <time>2025-12-27T13:19:58Z</time>
   </trkpt>
   <trkpt lat="53.5619110" lon="-9.8834490">
    <ele>34.0</ele>
    <time>2025-12-27T13:20:03Z</time>
   </trkpt>
   <trkpt lat="53.5618800" lon="-9.8833780">
    <ele>34.9</ele>
    <time>2025-12-27T13:20:16Z</time>
   </trkpt>
   <trkpt lat="53.5618420" lon="-9.8832990">
    <ele>35.1</ele>
    <time>2025-12-27T13:20:21Z</time>
   </trkpt>
   <trkpt lat="53.5618290" lon="-9.8832270">
    <ele>34.8</ele>
    <time>2025-12-27T13:20:42Z</time>
   </trkpt>
   <trkpt lat="53.5618460" lon="-9.8831550">
    <ele>34.7</ele>
    <time>2025-12-27T13:21:50Z</time>
   </trkpt>
   <trkpt lat="53.5618450" lon="-9.8830420">
    <ele>34.6</ele>
    <time>2025-12-27T13:21:55Z</time>
   </trkpt>
   <trkpt lat="53.5618420" lon="-9.8828970">
    <ele>34.4</ele>
    <time>2025-12-27T13:22:01Z</time>
   </trkpt>
   <trkpt lat="53.5618520" lon="-9.8827650">
    <ele>35.8</ele>
    <time>2025-12-27T13:22:06Z</time>
   </trkpt>
   <trkpt lat="53.5618510" lon="-9.8826420">
    <ele>37.1</ele>
    <time>2025-12-27T13:22:11Z</time>
   </trkpt>
   <trkpt lat="53.5618370" lon="-9.8825320">
    <ele>38.0</ele>
    <time>2025-12-27T13:22:16Z</time>
   </trkpt>
   <trkpt lat="53.5618370" lon="-9.8824540">
    <ele>38.5</ele>
    <time>2025-12-27T13:22:22Z</time>
   </trkpt>
   <trkpt lat="53.5618870" lon="-9.8823590">
    <ele>40.4</ele>
    <time>2025-12-27T13:22:54Z</time>
   </trkpt>
   <trkpt lat="53.5619170" lon="-9.8822760">
    <ele>40.4</ele>
    <time>2025-12-27T13:22:59Z</time>
   </trkpt>
   <trkpt lat="53.5619440" lon="-9.8823440">
    <ele>40.5</ele>
    <time>2025-12-27T13:23:17Z</time>
   </trkpt>
   <trkpt lat="53.5618790" lon="-9.8823970">
    <ele>40.6</ele>
    <time>2025-12-27T13:23:22Z</time>
   </trkpt>
   <trkpt lat="53.5618630" lon="-9.8824960">
    <ele>40.4</ele>
    <time>2025-12-27T13:23:29Z</time>
   </trkpt>
   <trkpt lat="53.5617700" lon="-9.8827400">
    <ele>40.1</ele>
    <time>2025-12-27T13:23:34Z</time>
   </trkpt>
   <trkpt lat="53.5617660" lon="-9.8828930">
    <ele>39.7</ele>
    <time>2025-12-27T13:23:39Z</time>
   </trkpt>
   <trkpt lat="53.5618030" lon="-9.8830290">
    <ele>39.1</ele>
    <time>2025-12-27T13:23:45Z</time>
   </trkpt>
   <trkpt lat="53.5618260" lon="-9.8831100">
    <ele>38.3</ele>
    <time>2025-12-27T13:23:50Z</time>
   </trkpt>
   <trkpt lat="53.5618250" lon="-9.8831980">
    <ele>37.7</ele>
    <time>2025-12-27T13:23:55Z</time>
   </trkpt>
   <trkpt lat="53.5618320" lon="-9.8832780">
    <ele>36.8</ele>
    <time>2025-12-27T13:24:01Z</time>
   </trkpt>
   <trkpt lat="53.5618550" lon="-9.8833740">
    <ele>36.1</ele>
    <time>2025-12-27T13:24:06Z</time>
   </trkpt>
   <trkpt lat="53.5618830" lon="-9.8834790">
    <ele>35.8</ele>
    <time>2025-12-27T13:24:12Z</time>
   </trkpt>
   <trkpt lat="53.5619080" lon="-9.8835800">
    <ele>35.5</ele>
    <time>2025-12-27T13:24:17Z</time>
   </trkpt>
   <trkpt lat="53.5619320" lon="-9.8836820">
    <ele>35.3</ele>
    <time>2025-12-27T13:24:23Z</time>
   </trkpt>
   <trkpt lat="53.5619530" lon="-9.8837810">
    <ele>34.8</ele>
    <time>2025-12-27T13:24:28Z</time>
   </trkpt>
   <trkpt lat="53.5619660" lon="-9.8838920">
    <ele>34.3</ele>
    <time>2025-12-27T13:24:33Z</time>
   </trkpt>
   <trkpt lat="53.5619740" lon="-9.8840280">
    <ele>34.0</ele>
    <time>2025-12-27T13:24:39Z</time>
   </trkpt>
   <trkpt lat="53.5619800" lon="-9.8841470">
    <ele>33.6</ele>
    <time>2025-12-27T13:24:44Z</time>
   </trkpt>
   <trkpt lat="53.5619920" lon="-9.8842660">
    <ele>32.5</ele>
    <time>2025-12-27T13:24:50Z</time>
   </trkpt>
   <trkpt lat="53.5619910" lon="-9.8843870">
    <ele>32.8</ele>
    <time>2025-12-27T13:24:55Z</time>
   </trkpt>
   <trkpt lat="53.5619680" lon="-9.8845250">
    <ele>32.9</ele>
    <time>2025-12-27T13:25:00Z</time>
   </trkpt>
   <trkpt lat="53.5619440" lon="-9.8846440">
    <ele>32.2</ele>
    <time>2025-12-27T13:25:06Z</time>
   </trkpt>
   <trkpt lat="53.5619270" lon="-9.8847520">
    <ele>32.0</ele>
    <time>2025-12-27T13:25:11Z</time>
   </trkpt>
   <trkpt lat="53.5619230" lon="-9.8848540">
    <ele>31.9</ele>
    <time>2025-12-27T13:25:17Z</time>
   </trkpt>
   <trkpt lat="53.5619270" lon="-9.8849500">
    <ele>31.8</ele>
    <time>2025-12-27T13:25:22Z</time>
   </trkpt>
   <trkpt lat="53.5618980" lon="-9.8850250">
    <ele>31.8</ele>
    <time>2025-12-27T13:25:53Z</time>
   </trkpt>
   <trkpt lat="53.5618770" lon="-9.8852000">
    <ele>31.8</ele>
    <time>2025-12-27T13:25:58Z</time>
   </trkpt>
   <trkpt lat="53.5618670" lon="-9.8853160">
    <ele>31.8</ele>
    <time>2025-12-27T13:26:04Z</time>
   </trkpt>
   <trkpt lat="53.5618640" lon="-9.8854300">
    <ele>31.8</ele>
    <time>2025-12-27T13:26:09Z</time>
   </trkpt>
   <trkpt lat="53.5618290" lon="-9.8855670">
    <ele>31.8</ele>
    <time>2025-12-27T13:26:15Z</time>
   </trkpt>
   <trkpt lat="53.5618200" lon="-9.8856820">
    <ele>31.8</ele>
    <time>2025-12-27T13:26:20Z</time>
   </trkpt>
   <trkpt lat="53.5618020" lon="-9.8857880">
    <ele>31.8</ele>
    <time>2025-12-27T13:26:25Z</time>
   </trkpt>
   <trkpt lat="53.5617970" lon="-9.8858800">
    <ele>31.8</ele>
    <time>2025-12-27T13:26:31Z</time>
   </trkpt>
   <trkpt lat="53.5617730" lon="-9.8859650">
    <ele>31.8</ele>
    <time>2025-12-27T13:26:36Z</time>
   </trkpt>
   <trkpt lat="53.5617460" lon="-9.8860600">
    <ele>31.8</ele>
    <time>2025-12-27T13:26:42Z</time>
   </trkpt>
   <trkpt lat="53.5617180" lon="-9.8862010">
    <ele>33.1</ele>
    <time>2025-12-27T13:26:47Z</time>
   </trkpt>
   <trkpt lat="53.5617040" lon="-9.8863040">
    <ele>33.9</ele>
    <time>2025-12-27T13:26:52Z</time>
   </trkpt>
   <trkpt lat="53.5616840" lon="-9.8863900">
    <ele>34.2</ele>
    <time>2025-12-27T13:26:58Z</time>
   </trkpt>
   <trkpt lat="53.5616530" lon="-9.8865020">
    <ele>33.8</ele>
    <time>2025-12-27T13:27:03Z</time>
   </trkpt>
   <trkpt lat="53.5616580" lon="-9.8866400">
    <ele>34.0</ele>
    <time>2025-12-27T13:27:09Z</time>
   </trkpt>
   <trkpt lat="53.5616750" lon="-9.8867550">
    <ele>32.6</ele>
    <time>2025-12-27T13:27:14Z</time>
   </trkpt>
   <trkpt lat="53.5616950" lon="-9.8868610">
    <ele>32.1</ele>
    <time>2025-12-27T13:27:19Z</time>
   </trkpt>
   <trkpt lat="53.5617110" lon="-9.8869710">
    <ele>31.9</ele>
    <time>2025-12-27T13:27:25Z</time>
   </trkpt>
   <trkpt lat="53.5617260" lon="-9.8870790">
    <ele>31.9</ele>
    <time>2025-12-27T13:27:30Z</time>
   </trkpt>
   <trkpt lat="53.5617280" lon="-9.8871940">
    <ele>31.8</ele>
    <time>2025-12-27T13:27:36Z</time>
   </trkpt>
   <trkpt lat="53.5617230" lon="-9.8873010">
    <ele>31.8</ele>
    <time>2025-12-27T13:27:41Z</time>
   </trkpt>
   <trkpt lat="53.5617010" lon="-9.8874130">
    <ele>31.8</ele>
    <time>2025-12-27T13:27:46Z</time>
   </trkpt>
   <trkpt lat="53.5616720" lon="-9.8875280">
    <ele>31.8</ele>
    <time>2025-12-27T13:27:52Z</time>
   </trkpt>
   <trkpt lat="53.5616370" lon="-9.8876160">
    <ele>32.5</ele>
    <time>2025-12-27T13:27:57Z</time>
   </trkpt>
   <trkpt lat="53.5616140" lon="-9.8877090">
    <ele>32.0</ele>
    <time>2025-12-27T13:28:02Z</time>
   </trkpt>
   <trkpt lat="53.5615910" lon="-9.8878170">
    <ele>31.4</ele>
    <time>2025-12-27T13:28:08Z</time>
   </trkpt>
   <trkpt lat="53.5615690" lon="-9.8879100">
    <ele>30.7</ele>
    <time>2025-12-27T13:28:13Z</time>
   </trkpt>
   <trkpt lat="53.5615580" lon="-9.8880140">
    <ele>31.4</ele>
    <time>2025-12-27T13:28:19Z</time>
   </trkpt>
   <trkpt lat="53.5615180" lon="-9.8880790">
    <ele>33.4</ele>
    <time>2025-12-27T13:29:05Z</time>
   </trkpt>
   <trkpt lat="53.5614910" lon="-9.8881690">
    <ele>34.1</ele>
    <time>2025-12-27T13:29:10Z</time>
   </trkpt>
   <trkpt lat="53.5614420" lon="-9.8882930">
    <ele>34.2</ele>
    <time>2025-12-27T13:29:15Z</time>
   </trkpt>
   <trkpt lat="53.5613990" lon="-9.8883900">
    <ele>33.5</ele>
    <time>2025-12-27T13:29:21Z</time>
   </trkpt>
   <trkpt lat="53.5613730" lon="-9.8884800">
    <ele>34.0</ele>
    <time>2025-12-27T13:29:26Z</time>
   </trkpt>
   <trkpt lat="53.5613370" lon="-9.8885950">
    <ele>33.7</ele>
    <time>2025-12-27T13:29:32Z</time>
   </trkpt>
   <trkpt lat="53.5613250" lon="-9.8887200">
    <ele>33.1</ele>
    <time>2025-12-27T13:29:37Z</time>
   </trkpt>
   <trkpt lat="53.5613230" lon="-9.8888330">
    <ele>32.9</ele>
    <time>2025-12-27T13:29:42Z</time>
   </trkpt>
   <trkpt lat="53.5613080" lon="-9.8889420">
    <ele>33.0</ele>
    <time>2025-12-27T13:29:48Z</time>
   </trkpt>
   <trkpt lat="53.5612880" lon="-9.8890720">
    <ele>33.0</ele>
    <time>2025-12-27T13:29:53Z</time>
   </trkpt>
   <trkpt lat="53.5612660" lon="-9.8891980">
    <ele>33.0</ele>
    <time>2025-12-27T13:29:58Z</time>
   </trkpt>
   <trkpt lat="53.5612620" lon="-9.8893070">
    <ele>33.1</ele>
    <time>2025-12-27T13:30:03Z</time>
   </trkpt>
   <trkpt lat="53.5612490" lon="-9.8894380">
    <ele>33.2</ele>
    <time>2025-12-27T13:30:09Z</time>
   </trkpt>
   <trkpt lat="53.5612460" lon="-9.8895670">
    <ele>33.2</ele>
    <time>2025-12-27T13:30:14Z</time>
   </trkpt>
   <trkpt lat="53.5612880" lon="-9.8896540">
    <ele>33.2</ele>
    <time>2025-12-27T13:30:19Z</time>
   </trkpt>
   <trkpt lat="53.5612730" lon="-9.8897270">
    <ele>33.2</ele>
    <time>2025-12-27T13:30:31Z</time>
   </trkpt>
   <trkpt lat="53.5612700" lon="-9.8898740">
    <ele>33.2</ele>
    <time>2025-12-27T13:30:36Z</time>
   </trkpt>
   <trkpt lat="53.5612730" lon="-9.8900060">
    <ele>33.2</ele>
    <time>2025-12-27T13:30:42Z</time>
   </trkpt>
   <trkpt lat="53.5612980" lon="-9.8901210">
    <ele>33.2</ele>
    <time>2025-12-27T13:30:47Z</time>
   </trkpt>
   <trkpt lat="53.5613250" lon="-9.8902410">
    <ele>33.2</ele>
    <time>2025-12-27T13:30:52Z</time>
   </trkpt>
   <trkpt lat="53.5613330" lon="-9.8903840">
    <ele>33.2</ele>
    <time>2025-12-27T13:30:58Z</time>
   </trkpt>
   <trkpt lat="53.5613640" lon="-9.8905040">
    <ele>33.2</ele>
    <time>2025-12-27T13:31:03Z</time>
   </trkpt>
   <trkpt lat="53.5614140" lon="-9.8905800">
    <ele>33.2</ele>
    <time>2025-12-27T13:31:09Z</time>
   </trkpt>
   <trkpt lat="53.5614390" lon="-9.8906870">
    <ele>33.2</ele>
    <time>2025-12-27T13:31:14Z</time>
   </trkpt>
   <trkpt lat="53.5614530" lon="-9.8908160">
    <ele>33.2</ele>
    <time>2025-12-27T13:31:19Z</time>
   </trkpt>
   <trkpt lat="53.5614580" lon="-9.8909330">
    <ele>33.2</ele>
    <time>2025-12-27T13:31:25Z</time>
   </trkpt>
   <trkpt lat="53.5614350" lon="-9.8910690">
    <ele>33.2</ele>
    <time>2025-12-27T13:31:30Z</time>
   </trkpt>
   <trkpt lat="53.5614170" lon="-9.8911830">
    <ele>33.2</ele>
    <time>2025-12-27T13:31:36Z</time>
   </trkpt>
   <trkpt lat="53.5614230" lon="-9.8912820">
    <ele>33.2</ele>
    <time>2025-12-27T13:31:41Z</time>
   </trkpt>
   <trkpt lat="53.5614210" lon="-9.8914090">
    <ele>33.2</ele>
    <time>2025-12-27T13:31:47Z</time>
   </trkpt>
   <trkpt lat="53.5614620" lon="-9.8915140">
    <ele>33.2</ele>
    <time>2025-12-27T13:31:52Z</time>
   </trkpt>
   <trkpt lat="53.5614900" lon="-9.8915840">
    <ele>33.2</ele>
    <time>2025-12-27T13:31:57Z</time>
   </trkpt>
   <trkpt lat="53.5615310" lon="-9.8916290">
    <ele>33.2</ele>
    <time>2025-12-27T13:32:05Z</time>
   </trkpt>
   <trkpt lat="53.5615700" lon="-9.8917270">
    <ele>33.2</ele>
    <time>2025-12-27T13:32:10Z</time>
   </trkpt>
   <trkpt lat="53.5615890" lon="-9.8918220">
    <ele>33.2</ele>
    <time>2025-12-27T13:32:15Z</time>
   </trkpt>
   <trkpt lat="53.5615990" lon="-9.8919290">
    <ele>33.2</ele>
    <time>2025-12-27T13:32:21Z</time>
   </trkpt>
   <trkpt lat="53.5616110" lon="-9.8920250">
    <ele>33.2</ele>
    <time>2025-12-27T13:32:26Z</time>
   </trkpt>
   <trkpt lat="53.5616270" lon="-9.8921190">
    <ele>33.2</ele>
    <time>2025-12-27T13:32:32Z</time>
   </trkpt>
   <trkpt lat="53.5616440" lon="-9.8922160">
    <ele>33.2</ele>
    <time>2025-12-27T13:32:37Z</time>
   </trkpt>
   <trkpt lat="53.5616500" lon="-9.8923160">
    <ele>33.2</ele>
    <time>2025-12-27T13:32:43Z</time>
   </trkpt>
   <trkpt lat="53.5616700" lon="-9.8924140">
    <ele>33.2</ele>
    <time>2025-12-27T13:32:48Z</time>
   </trkpt>
   <trkpt lat="53.5616880" lon="-9.8925290">
    <ele>33.2</ele>
    <time>2025-12-27T13:32:54Z</time>
   </trkpt>
   <trkpt lat="53.5616920" lon="-9.8926580">
    <ele>33.2</ele>
    <time>2025-12-27T13:32:59Z</time>
   </trkpt>
   <trkpt lat="53.5617010" lon="-9.8927950">
    <ele>33.2</ele>
    <time>2025-12-27T13:33:05Z</time>
   </trkpt>
   <trkpt lat="53.5617100" lon="-9.8929240">
    <ele>33.2</ele>
    <time>2025-12-27T13:33:10Z</time>
   </trkpt>
   <trkpt lat="53.5617270" lon="-9.8930490">
    <ele>33.2</ele>
    <time>2025-12-27T13:33:16Z</time>
   </trkpt>
   <trkpt lat="53.5617600" lon="-9.8931730">
    <ele>33.2</ele>
    <time>2025-12-27T13:33:21Z</time>
   </trkpt>
   <trkpt lat="53.5617810" lon="-9.8932790">
    <ele>33.2</ele>
    <time>2025-12-27T13:33:27Z</time>
   </trkpt>
   <trkpt lat="53.5617890" lon="-9.8934090">
    <ele>33.2</ele>
    <time>2025-12-27T13:33:32Z</time>
   </trkpt>
   <trkpt lat="53.5618090" lon="-9.8935090">
    <ele>33.2</ele>
    <time>2025-12-27T13:33:37Z</time>
   </trkpt>
   <trkpt lat="53.5618290" lon="-9.8936110">
    <ele>33.2</ele>
    <time>2025-12-27T13:33:43Z</time>
   </trkpt>
   <trkpt lat="53.5618500" lon="-9.8937050">
    <ele>33.2</ele>
    <time>2025-12-27T13:33:48Z</time>
   </trkpt>
   <trkpt lat="53.5618720" lon="-9.8938020">
    <ele>33.2</ele>
    <time>2025-12-27T13:33:54Z</time>
   </trkpt>
   <trkpt lat="53.5618910" lon="-9.8939000">
    <ele>33.2</ele>
    <time>2025-12-27T13:33:59Z</time>
   </trkpt>
   <trkpt lat="53.5619350" lon="-9.8940390">
    <ele>33.2</ele>
    <time>2025-12-27T13:34:05Z</time>
   </trkpt>
   <trkpt lat="53.5618910" lon="-9.8940700">
    <ele>33.2</ele>
    <time>2025-12-27T13:34:53Z</time>
   </trkpt>
   <trkpt lat="53.5618740" lon="-9.8941550">
    <ele>33.2</ele>
    <time>2025-12-27T13:34:58Z</time>
   </trkpt>
   <trkpt lat="53.5619310" lon="-9.8942200">
    <ele>33.2</ele>
    <time>2025-12-27T13:35:04Z</time>
   </trkpt>
   <trkpt lat="53.5619630" lon="-9.8943140">
    <ele>33.2</ele>
    <time>2025-12-27T13:35:09Z</time>
   </trkpt>
   <trkpt lat="53.5619950" lon="-9.8944110">
    <ele>33.2</ele>
    <time>2025-12-27T13:35:15Z</time>
   </trkpt>
   <trkpt lat="53.5620170" lon="-9.8945320">
    <ele>33.2</ele>
    <time>2025-12-27T13:35:20Z</time>
   </trkpt>
   <trkpt lat="53.5620280" lon="-9.8946830">
    <ele>33.2</ele>
    <time>2025-12-27T13:35:25Z</time>
   </trkpt>
   <trkpt lat="53.5620400" lon="-9.8948500">
    <ele>33.2</ele>
    <time>2025-12-27T13:35:31Z</time>
   </trkpt>
   <trkpt lat="53.5620580" lon="-9.8950080">
    <ele>33.2</ele>
    <time>2025-12-27T13:35:36Z</time>
   </trkpt>
   <trkpt lat="53.5620780" lon="-9.8951220">
    <ele>33.2</ele>
    <time>2025-12-27T13:35:42Z</time>
   </trkpt>
   <trkpt lat="53.5620960" lon="-9.8952390">
    <ele>33.2</ele>
    <time>2025-12-27T13:35:47Z</time>
   </trkpt>
   <trkpt lat="53.5621250" lon="-9.8953410">
    <ele>33.2</ele>
    <time>2025-12-27T13:35:53Z</time>
   </trkpt>
   <trkpt lat="53.5621670" lon="-9.8954230">
    <ele>33.2</ele>
    <time>2025-12-27T13:35:58Z</time>
   </trkpt>
   <trkpt lat="53.5621960" lon="-9.8954980">
    <ele>33.2</ele>
    <time>2025-12-27T13:36:03Z</time>
   </trkpt>
   <trkpt lat="53.5621930" lon="-9.8955850">
    <ele>33.2</ele>
    <time>2025-12-27T13:36:39Z</time>
   </trkpt>
   <trkpt lat="53.5622850" lon="-9.8957030">
    <ele>33.2</ele>
    <time>2025-12-27T13:36:44Z</time>
   </trkpt>
   <trkpt lat="53.5623410" lon="-9.8957850">
    <ele>33.2</ele>
    <time>2025-12-27T13:36:49Z</time>
   </trkpt>
   <trkpt lat="53.5623490" lon="-9.8958730">
    <ele>33.1</ele>
    <time>2025-12-27T13:36:55Z</time>
   </trkpt>
   <trkpt lat="53.5623690" lon="-9.8959460">
    <ele>33.2</ele>
    <time>2025-12-27T13:37:11Z</time>
   </trkpt>
   <trkpt lat="53.5624450" lon="-9.8960430">
    <ele>33.0</ele>
    <time>2025-12-27T13:37:16Z</time>
   </trkpt>
   <trkpt lat="53.5624740" lon="-9.8961920">
    <ele>32.7</ele>
    <time>2025-12-27T13:37:21Z</time>
   </trkpt>
   <trkpt lat="53.5624750" lon="-9.8963670">
    <ele>32.9</ele>
    <time>2025-12-27T13:37:26Z</time>
   </trkpt>
   <trkpt lat="53.5625170" lon="-9.8964640">
    <ele>33.1</ele>
    <time>2025-12-27T13:37:31Z</time>
   </trkpt>
   <trkpt lat="53.5624940" lon="-9.8965780">
    <ele>33.1</ele>
    <time>2025-12-27T13:37:36Z</time>
   </trkpt>
   <trkpt lat="53.5625060" lon="-9.8967070">
    <ele>32.7</ele>
    <time>2025-12-27T13:37:42Z</time>
   </trkpt>
   <trkpt lat="53.5625260" lon="-9.8968010">
    <ele>32.5</ele>
    <time>2025-12-27T13:37:47Z</time>
   </trkpt>
   <trkpt lat="53.5625400" lon="-9.8969160">
    <ele>32.6</ele>
    <time>2025-12-27T13:37:53Z</time>
   </trkpt>
   <trkpt lat="53.5625530" lon="-9.8970260">
    <ele>32.6</ele>
    <time>2025-12-27T13:37:58Z</time>
   </trkpt>
   <trkpt lat="53.5625630" lon="-9.8971230">
    <ele>32.4</ele>
    <time>2025-12-27T13:38:04Z</time>
   </trkpt>
   <trkpt lat="53.5625450" lon="-9.8972650">
    <ele>32.3</ele>
    <time>2025-12-27T13:38:09Z</time>
   </trkpt>
   <trkpt lat="53.5625400" lon="-9.8974060">
    <ele>32.4</ele>
    <time>2025-12-27T13:38:15Z</time>
   </trkpt>
   <trkpt lat="53.5625600" lon="-9.8975580">
    <ele>32.5</ele>
    <time>2025-12-27T13:38:20Z</time>
   </trkpt>
   <trkpt lat="53.5625860" lon="-9.8976950">
    <ele>32.4</ele>
    <time>2025-12-27T13:38:26Z</time>
   </trkpt>
   <trkpt lat="53.5626040" lon="-9.8978110">
    <ele>32.4</ele>
    <time>2025-12-27T13:38:31Z</time>
   </trkpt>
   <trkpt lat="53.5626030" lon="-9.8979160">
    <ele>32.3</ele>
    <time>2025-12-27T13:38:36Z</time>
   </trkpt>
   <trkpt lat="53.5626100" lon="-9.8980170">
    <ele>32.3</ele>
    <time>2025-12-27T13:38:42Z</time>
   </trkpt>
   <trkpt lat="53.5626310" lon="-9.8981100">
    <ele>32.0</ele>
    <time>2025-12-27T13:38:47Z</time>
   </trkpt>
   <trkpt lat="53.5626520" lon="-9.8982280">
    <ele>31.6</ele>
    <time>2025-12-27T13:38:52Z</time>
   </trkpt>
   <trkpt lat="53.5626730" lon="-9.8983350">
    <ele>31.7</ele>
    <time>2025-12-27T13:38:58Z</time>
   </trkpt>
   <trkpt lat="53.5626870" lon="-9.8984480">
    <ele>31.8</ele>
    <time>2025-12-27T13:39:03Z</time>
   </trkpt>
   <trkpt lat="53.5626980" lon="-9.8985940">
    <ele>31.7</ele>
    <time>2025-12-27T13:39:09Z</time>
   </trkpt>
   <trkpt lat="53.5627320" lon="-9.8987150">
    <ele>31.5</ele>
    <time>2025-12-27T13:39:14Z</time>
   </trkpt>
   <trkpt lat="53.5627710" lon="-9.8988180">
    <ele>31.5</ele>
    <time>2025-12-27T13:39:20Z</time>
   </trkpt>
   <trkpt lat="53.5627960" lon="-9.8989050">
    <ele>31.7</ele>
    <time>2025-12-27T13:39:25Z</time>
   </trkpt>
   <trkpt lat="53.5628130" lon="-9.8989990">
    <ele>31.7</ele>
    <time>2025-12-27T13:39:31Z</time>
   </trkpt>
   <trkpt lat="53.5628300" lon="-9.8990890">
    <ele>31.5</ele>
    <time>2025-12-27T13:39:36Z</time>
   </trkpt>
   <trkpt lat="53.5628490" lon="-9.8991930">
    <ele>31.3</ele>
    <time>2025-12-27T13:39:41Z</time>
   </trkpt>
   <trkpt lat="53.5628560" lon="-9.8993240">
    <ele>31.1</ele>
    <time>2025-12-27T13:39:47Z</time>
   </trkpt>
   <trkpt lat="53.5628560" lon="-9.8994650">
    <ele>31.0</ele>
    <time>2025-12-27T13:39:52Z</time>
   </trkpt>
   <trkpt lat="53.5628540" lon="-9.8996220">
    <ele>31.0</ele>
    <time>2025-12-27T13:39:58Z</time>
   </trkpt>
   <trkpt lat="53.5628720" lon="-9.8997510">
    <ele>30.9</ele>
    <time>2025-12-27T13:40:03Z</time>
   </trkpt>
   <trkpt lat="53.5628990" lon="-9.8998390">
    <ele>30.9</ele>
    <time>2025-12-27T13:40:09Z</time>
   </trkpt>
   <trkpt lat="53.5629030" lon="-9.8999400">
    <ele>31.0</ele>
    <time>2025-12-27T13:40:14Z</time>
   </trkpt>
   <trkpt lat="53.5628960" lon="-9.9000420">
    <ele>31.2</ele>
    <time>2025-12-27T13:40:20Z</time>
   </trkpt>
   <trkpt lat="53.5628720" lon="-9.9001570">
    <ele>31.4</ele>
    <time>2025-12-27T13:40:25Z</time>
   </trkpt>
   <trkpt lat="53.5628590" lon="-9.9002550">
    <ele>31.2</ele>
    <time>2025-12-27T13:40:30Z</time>
   </trkpt>
   <trkpt lat="53.5628310" lon="-9.9003630">
    <ele>30.9</ele>
    <time>2025-12-27T13:40:36Z</time>
   </trkpt>
   <trkpt lat="53.5628110" lon="-9.9004750">
    <ele>30.8</ele>
    <time>2025-12-27T13:40:41Z</time>
   </trkpt>
   <trkpt lat="53.5627860" lon="-9.9005670">
    <ele>31.0</ele>
    <time>2025-12-27T13:40:47Z</time>
   </trkpt>
   <trkpt lat="53.5627920" lon="-9.9006700">
    <ele>31.2</ele>
    <time>2025-12-27T13:40:52Z</time>
   </trkpt>
   <trkpt lat="53.5627880" lon="-9.9007700">
    <ele>31.3</ele>
    <time>2025-12-27T13:40:57Z</time>
   </trkpt>
   <trkpt lat="53.5627880" lon="-9.9008860">
    <ele>31.3</ele>
    <time>2025-12-27T13:41:02Z</time>
   </trkpt>
   <trkpt lat="53.5628120" lon="-9.9010090">
    <ele>31.1</ele>
    <time>2025-12-27T13:41:08Z</time>
   </trkpt>
   <trkpt lat="53.5628250" lon="-9.9011200">
    <ele>31.1</ele>
    <time>2025-12-27T13:41:13Z</time>
   </trkpt>
   <trkpt lat="53.5628190" lon="-9.9012480">
    <ele>31.4</ele>
    <time>2025-12-27T13:41:18Z</time>
   </trkpt>
   <trkpt lat="53.5628020" lon="-9.9013730">
    <ele>31.6</ele>
    <time>2025-12-27T13:41:24Z</time>
   </trkpt>
   <trkpt lat="53.5628010" lon="-9.9014710">
    <ele>31.5</ele>
    <time>2025-12-27T13:41:29Z</time>
   </trkpt>
   <trkpt lat="53.5628010" lon="-9.9015600">
    <ele>31.3</ele>
    <time>2025-12-27T13:41:34Z</time>
   </trkpt>
   <trkpt lat="53.5628110" lon="-9.9016360">
    <ele>31.1</ele>
    <time>2025-12-27T13:41:40Z</time>
   </trkpt>
   <trkpt lat="53.5628210" lon="-9.9017310">
    <ele>31.0</ele>
    <time>2025-12-27T13:41:45Z</time>
   </trkpt>
   <trkpt lat="53.5628220" lon="-9.9018380">
    <ele>31.1</ele>
    <time>2025-12-27T13:41:51Z</time>
   </trkpt>
   <trkpt lat="53.5628280" lon="-9.9019710">
    <ele>31.2</ele>
    <time>2025-12-27T13:41:56Z</time>
   </trkpt>
   <trkpt lat="53.5628360" lon="-9.9020850">
    <ele>31.2</ele>
    <time>2025-12-27T13:42:02Z</time>
   </trkpt>
   <trkpt lat="53.5628460" lon="-9.9022160">
    <ele>31.1</ele>
    <time>2025-12-27T13:42:07Z</time>
   </trkpt>
   <trkpt lat="53.5628610" lon="-9.9023340">
    <ele>31.1</ele>
    <time>2025-12-27T13:42:12Z</time>
   </trkpt>
   <trkpt lat="53.5628560" lon="-9.9024110">
    <ele>31.1</ele>
    <time>2025-12-27T13:42:27Z</time>
   </trkpt>
   <trkpt lat="53.5628600" lon="-9.9025560">
    <ele>31.0</ele>
    <time>2025-12-27T13:42:32Z</time>
   </trkpt>
   <trkpt lat="53.5628690" lon="-9.9026800">
    <ele>30.7</ele>
    <time>2025-12-27T13:42:37Z</time>
   </trkpt>
   <trkpt lat="53.5628800" lon="-9.9027760">
    <ele>30.7</ele>
    <time>2025-12-27T13:42:43Z</time>
   </trkpt>
   <trkpt lat="53.5628830" lon="-9.9028920">
    <ele>30.8</ele>
    <time>2025-12-27T13:42:48Z</time>
   </trkpt>
   <trkpt lat="53.5628730" lon="-9.9030070">
    <ele>30.8</ele>
    <time>2025-12-27T13:42:54Z</time>
   </trkpt>
   <trkpt lat="53.5628470" lon="-9.9030810">
    <ele>30.8</ele>
    <time>2025-12-27T13:42:59Z</time>
   </trkpt>
   <trkpt lat="53.5628120" lon="-9.9031400">
    <ele>30.7</ele>
    <time>2025-12-27T13:43:05Z</time>
   </trkpt>
   <trkpt lat="53.5628350" lon="-9.9032140">
    <ele>30.5</ele>
    <time>2025-12-27T13:43:23Z</time>
   </trkpt>
   <trkpt lat="53.5628600" lon="-9.9033740">
    <ele>30.6</ele>
    <time>2025-12-27T13:43:28Z</time>
   </trkpt>
   <trkpt lat="53.5628640" lon="-9.9035100">
    <ele>30.8</ele>
    <time>2025-12-27T13:43:34Z</time>
   </trkpt>
   <trkpt lat="53.5628620" lon="-9.9036360">
    <ele>31.2</ele>
    <time>2025-12-27T13:43:40Z</time>
   </trkpt>
   <trkpt lat="53.5628670" lon="-9.9037650">
    <ele>31.6</ele>
    <time>2025-12-27T13:43:45Z</time>
   </trkpt>
   <trkpt lat="53.5628600" lon="-9.9038780">
    <ele>32.1</ele>
    <time>2025-12-27T13:43:51Z</time>
   </trkpt>
   <trkpt lat="53.5628370" lon="-9.9039610">
    <ele>32.5</ele>
    <time>2025-12-27T13:43:56Z</time>
   </trkpt>
   <trkpt lat="53.5628210" lon="-9.9040420">
    <ele>32.7</ele>
    <time>2025-12-27T13:44:02Z</time>
   </trkpt>
   <trkpt lat="53.5628340" lon="-9.9041720">
    <ele>32.7</ele>
    <time>2025-12-27T13:44:07Z</time>
   </trkpt>
   <trkpt lat="53.5628620" lon="-9.9042950">
    <ele>33.1</ele>
    <time>2025-12-27T13:44:13Z</time>
   </trkpt>
   <trkpt lat="53.5628750" lon="-9.9044110">
    <ele>33.6</ele>
    <time>2025-12-27T13:44:18Z</time>
   </trkpt>
   <trkpt lat="53.5628810" lon="-9.9045630">
    <ele>33.9</ele>
    <time>2025-12-27T13:44:24Z</time>
   </trkpt>
   <trkpt lat="53.5628870" lon="-9.9047060">
    <ele>34.0</ele>
    <time>2025-12-27T13:44:29Z</time>
   </trkpt>
   <trkpt lat="53.5628860" lon="-9.9048230">
    <ele>34.1</ele>
    <time>2025-12-27T13:44:35Z</time>
   </trkpt>
   <trkpt lat="53.5629070" lon="-9.9049310">
    <ele>34.4</ele>
    <time>2025-12-27T13:44:40Z</time>
   </trkpt>
   <trkpt lat="53.5629240" lon="-9.9050340">
    <ele>34.7</ele>
    <time>2025-12-27T13:44:45Z</time>
   </trkpt>
   <trkpt lat="53.5629170" lon="-9.9051550">
    <ele>34.8</ele>
    <time>2025-12-27T13:44:51Z</time>
   </trkpt>
   <trkpt lat="53.5629200" lon="-9.9052610">
    <ele>34.9</ele>
    <time>2025-12-27T13:44:56Z</time>
   </trkpt>
   <trkpt lat="53.5629290" lon="-9.9053430">
    <ele>35.0</ele>
    <time>2025-12-27T13:45:01Z</time>
   </trkpt>
   <trkpt lat="53.5629440" lon="-9.9054450">
    <ele>34.9</ele>
    <time>2025-12-27T13:45:07Z</time>
   </trkpt>
   <trkpt lat="53.5629520" lon="-9.9055750">
    <ele>34.8</ele>
    <time>2025-12-27T13:45:12Z</time>
   </trkpt>
   <trkpt lat="53.5629620" lon="-9.9057230">
    <ele>34.8</ele>
    <time>2025-12-27T13:45:18Z</time>
   </trkpt>
   <trkpt lat="53.5629770" lon="-9.9058440">
    <ele>35.0</ele>
    <time>2025-12-27T13:45:23Z</time>
   </trkpt>
   <trkpt lat="53.5630050" lon="-9.9059500">
    <ele>34.9</ele>
    <time>2025-12-27T13:45:29Z</time>
   </trkpt>
   <trkpt lat="53.5630330" lon="-9.9060500">
    <ele>34.9</ele>
    <time>2025-12-27T13:45:34Z</time>
   </trkpt>
   <trkpt lat="53.5630600" lon="-9.9061490">
    <ele>34.8</ele>
    <time>2025-12-27T13:45:39Z</time>
   </trkpt>
   <trkpt lat="53.5630980" lon="-9.9062360">
    <ele>34.7</ele>
    <time>2025-12-27T13:45:45Z</time>
   </trkpt>
   <trkpt lat="53.5631150" lon="-9.9063390">
    <ele>34.4</ele>
    <time>2025-12-27T13:45:50Z</time>
   </trkpt>
   <trkpt lat="53.5631080" lon="-9.9064780">
    <ele>34.2</ele>
    <time>2025-12-27T13:45:56Z</time>
   </trkpt>
   <trkpt lat="53.5630890" lon="-9.9066250">
    <ele>34.2</ele>
    <time>2025-12-27T13:46:01Z</time>
   </trkpt>
   <trkpt lat="53.5630840" lon="-9.9067770">
    <ele>34.3</ele>
    <time>2025-12-27T13:46:07Z</time>
   </trkpt>
   <trkpt lat="53.5631400" lon="-9.9069190">
    <ele>34.3</ele>
    <time>2025-12-27T13:46:12Z</time>
   </trkpt>
   <trkpt lat="53.5631960" lon="-9.9070120">
    <ele>34.3</ele>
    <time>2025-12-27T13:46:18Z</time>
   </trkpt>
   <trkpt lat="53.5632480" lon="-9.9071030">
    <ele>34.2</ele>
    <time>2025-12-27T13:46:23Z</time>
   </trkpt>
   <trkpt lat="53.5632990" lon="-9.9071750">
    <ele>34.3</ele>
    <time>2025-12-27T13:46:28Z</time>
   </trkpt>
   <trkpt lat="53.5633550" lon="-9.9072680">
    <ele>34.7</ele>
    <time>2025-12-27T13:46:34Z</time>
   </trkpt>
   <trkpt lat="53.5633980" lon="-9.9073360">
    <ele>34.9</ele>
    <time>2025-12-27T13:46:39Z</time>
   </trkpt>
   <trkpt lat="53.5634420" lon="-9.9073890">
    <ele>35.2</ele>
    <time>2025-12-27T13:46:44Z</time>
   </trkpt>
   <trkpt lat="53.5634940" lon="-9.9074360">
    <ele>35.5</ele>
    <time>2025-12-27T13:46:49Z</time>
   </trkpt>
   <trkpt lat="53.5635420" lon="-9.9074830">
    <ele>35.7</ele>
    <time>2025-12-27T13:46:55Z</time>
   </trkpt>
   <trkpt lat="53.5635840" lon="-9.9075810">
    <ele>35.8</ele>
    <time>2025-12-27T13:47:00Z</time>
   </trkpt>
   <trkpt lat="53.5636000" lon="-9.9077130">
    <ele>36.0</ele>
    <time>2025-12-27T13:47:06Z</time>
   </trkpt>
   <trkpt lat="53.5636330" lon="-9.9078540">
    <ele>36.2</ele>
    <time>2025-12-27T13:47:11Z</time>
   </trkpt>
   <trkpt lat="53.5636760" lon="-9.9079620">
    <ele>36.2</ele>
    <time>2025-12-27T13:47:17Z</time>
   </trkpt>
   <trkpt lat="53.5637230" lon="-9.9080580">
    <ele>36.2</ele>
    <time>2025-12-27T13:47:22Z</time>
   </trkpt>
   <trkpt lat="53.5637700" lon="-9.9081490">
    <ele>36.2</ele>
    <time>2025-12-27T13:47:27Z</time>
   </trkpt>
   <trkpt lat="53.5638200" lon="-9.9082170">
    <ele>36.4</ele>
    <time>2025-12-27T13:47:32Z</time>
   </trkpt>
   <trkpt lat="53.5638630" lon="-9.9082880">
    <ele>36.7</ele>
    <time>2025-12-27T13:47:37Z</time>
   </trkpt>
   <trkpt lat="53.5638970" lon="-9.9083550">
    <ele>37.2</ele>
    <time>2025-12-27T13:47:42Z</time>
   </trkpt>
   <trkpt lat="53.5639400" lon="-9.9084230">
    <ele>37.6</ele>
    <time>2025-12-27T13:47:47Z</time>
   </trkpt>
   <trkpt lat="53.5639670" lon="-9.9085240">
    <ele>38.0</ele>
    <time>2025-12-27T13:47:53Z</time>
   </trkpt>
   <trkpt lat="53.5639230" lon="-9.9085880">
    <ele>38.4</ele>
    <time>2025-12-27T13:47:58Z</time>
   </trkpt>
   <trkpt lat="53.5638720" lon="-9.9085340">
    <ele>38.9</ele>
    <time>2025-12-27T13:48:03Z</time>
   </trkpt>
   <trkpt lat="53.5638300" lon="-9.9084840">
    <ele>39.6</ele>
    <time>2025-12-27T13:48:08Z</time>
   </trkpt>
   <trkpt lat="53.5637880" lon="-9.9084460">
    <ele>40.4</ele>
    <time>2025-12-27T13:48:14Z</time>
   </trkpt>
   <trkpt lat="53.5637380" lon="-9.9084240">
    <ele>42.2</ele>
    <time>2025-12-27T13:48:38Z</time>
   </trkpt>
   <trkpt lat="53.5636630" lon="-9.9084350">
    <ele>42.3</ele>
    <time>2025-12-27T13:48:43Z</time>
   </trkpt>
   <trkpt lat="53.5636040" lon="-9.9085100">
    <ele>42.3</ele>
    <time>2025-12-27T13:48:48Z</time>
   </trkpt>
   <trkpt lat="53.5635310" lon="-9.9085890">
    <ele>43.5</ele>
    <time>2025-12-27T13:48:53Z</time>
   </trkpt>
   <trkpt lat="53.5634630" lon="-9.9087030">
    <ele>44.2</ele>
    <time>2025-12-27T13:48:59Z</time>
   </trkpt>
   <trkpt lat="53.5634030" lon="-9.9088280">
    <ele>44.7</ele>
    <time>2025-12-27T13:49:04Z</time>
   </trkpt>
   <trkpt lat="53.5633280" lon="-9.9088630">
    <ele>46.2</ele>
    <time>2025-12-27T13:49:09Z</time>
   </trkpt>
   <trkpt lat="53.5632830" lon="-9.9088930">
    <ele>47.0</ele>
    <time>2025-12-27T13:49:24Z</time>
   </trkpt>
   <trkpt lat="53.5632370" lon="-9.9088970">
    <ele>47.1</ele>
    <time>2025-12-27T13:49:37Z</time>
   </trkpt>
   <trkpt lat="53.5631920" lon="-9.9088550">
    <ele>47.1</ele>
    <time>2025-12-27T13:49:51Z</time>
   </trkpt>
   <trkpt lat="53.5631470" lon="-9.9088570">
    <ele>47.1</ele>
    <time>2025-12-27T13:53:25Z</time>
   </trkpt>
   <trkpt lat="53.5631910" lon="-9.9088730">
    <ele>47.2</ele>
    <time>2025-12-27T13:54:51Z</time>
   </trkpt>
   <trkpt lat="53.5632280" lon="-9.9088240">
    <ele>47.1</ele>
    <time>2025-12-27T14:20:15Z</time>
   </trkpt>
   <trkpt lat="53.5631840" lon="-9.9088440">
    <ele>47.1</ele>
    <time>2025-12-27T14:20:40Z</time>
   </trkpt>
   <trkpt lat="53.5632390" lon="-9.9089380">
    <ele>47.1</ele>
    <time>2025-12-27T14:24:44Z</time>
   </trkpt>
   <trkpt lat="53.5632900" lon="-9.9089290">
    <ele>47.1</ele>
    <time>2025-12-27T14:24:59Z</time>
   </trkpt>
   <trkpt lat="53.5633550" lon="-9.9089310">
    <ele>47.1</ele>
    <time>2025-12-27T14:25:05Z</time>
   </trkpt>
   <trkpt lat="53.5634330" lon="-9.9088620">
    <ele>47.1</ele>
    <time>2025-12-27T14:25:10Z</time>
   </trkpt>
   <trkpt lat="53.5634810" lon="-9.9089130">
    <ele>47.1</ele>
    <time>2025-12-27T14:25:15Z</time>
   </trkpt>
   <trkpt lat="53.5635250" lon="-9.9089420">
    <ele>47.1</ele>
    <time>2025-12-27T14:25:32Z</time>
   </trkpt>
   <trkpt lat="53.5636080" lon="-9.9089610">
    <ele>47.1</ele>
    <time>2025-12-27T14:25:37Z</time>
   </trkpt>
   <trkpt lat="53.5636520" lon="-9.9089450">
    <ele>47.1</ele>
    <time>2025-12-27T14:25:59Z</time>
   </trkpt>
   <trkpt lat="53.5636840" lon="-9.9088790">
    <ele>45.9</ele>
    <time>2025-12-27T14:27:08Z</time>
   </trkpt>
   <trkpt lat="53.5637410" lon="-9.9088390">
    <ele>45.9</ele>
    <time>2025-12-27T14:27:14Z</time>
   </trkpt>
   <trkpt lat="53.5638030" lon="-9.9088270">
    <ele>45.9</ele>
    <time>2025-12-27T14:27:19Z</time>
   </trkpt>
   <trkpt lat="53.5638630" lon="-9.9088460">
    <ele>45.9</ele>
    <time>2025-12-27T14:27:24Z</time>
   </trkpt>
   <trkpt lat="53.5639110" lon="-9.9088460">
    <ele>45.9</ele>
    <time>2025-12-27T14:27:30Z</time>
   </trkpt>
   <trkpt lat="53.5639690" lon="-9.9088120">
    <ele>44.7</ele>
    <time>2025-12-27T14:27:36Z</time>
   </trkpt>
   <trkpt lat="53.5640210" lon="-9.9087850">
    <ele>43.8</ele>
    <time>2025-12-27T14:27:41Z</time>
   </trkpt>
   <trkpt lat="53.5640700" lon="-9.9087540">
    <ele>42.9</ele>
    <time>2025-12-27T14:27:47Z</time>
   </trkpt>
   <trkpt lat="53.5641190" lon="-9.9087550">
    <ele>42.2</ele>
    <time>2025-12-27T14:28:35Z</time>
   </trkpt>
   <trkpt lat="53.5641760" lon="-9.9087370">
    <ele>42.5</ele>
    <time>2025-12-27T14:28:40Z</time>
   </trkpt>
   <trkpt lat="53.5642320" lon="-9.9087210">
    <ele>43.3</ele>
    <time>2025-12-27T14:28:46Z</time>
   </trkpt>
   <trkpt lat="53.5642830" lon="-9.9087100">
    <ele>44.8</ele>
    <time>2025-12-27T14:28:51Z</time>
   </trkpt>
   <trkpt lat="53.5643270" lon="-9.9087280">
    <ele>45.4</ele>
    <time>2025-12-27T14:28:56Z</time>
   </trkpt>
   <trkpt lat="53.5643490" lon="-9.9087970">
    <ele>45.7</ele>
    <time>2025-12-27T14:29:02Z</time>
   </trkpt>
   <trkpt lat="53.5643980" lon="-9.9088190">
    <ele>45.8</ele>
    <time>2025-12-27T14:29:08Z</time>
   </trkpt>
   <trkpt lat="53.5644130" lon="-9.9087460">
    <ele>45.6</ele>
    <time>2025-12-27T14:30:19Z</time>
   </trkpt>
   <trkpt lat="53.5644060" lon="-9.9086680">
    <ele>45.7</ele>
    <time>2025-12-27T14:30:27Z</time>
   </trkpt>
   <trkpt lat="53.5643860" lon="-9.9087420">
    <ele>45.9</ele>
    <time>2025-12-27T14:33:04Z</time>
   </trkpt>
   <trkpt lat="53.5644400" lon="-9.9088010">
    <ele>45.9</ele>
    <time>2025-12-27T14:33:09Z</time>
   </trkpt>
   <trkpt lat="53.5645200" lon="-9.9087970">
    <ele>45.9</ele>
    <time>2025-12-27T14:33:15Z</time>
   </trkpt>
   <trkpt lat="53.5645900" lon="-9.9088160">
    <ele>45.9</ele>
    <time>2025-12-27T14:33:20Z</time>
   </trkpt>
   <trkpt lat="53.5645980" lon="-9.9088910">
    <ele>45.9</ele>
    <time>2025-12-27T14:33:32Z</time>
   </trkpt>
   <trkpt lat="53.5646020" lon="-9.9090050">
    <ele>45.9</ele>
    <time>2025-12-27T14:33:38Z</time>
   </trkpt>
   <trkpt lat="53.5646290" lon="-9.9090970">
    <ele>45.9</ele>
    <time>2025-12-27T14:33:43Z</time>
   </trkpt>
   <trkpt lat="53.5646720" lon="-9.9091280">
    <ele>45.9</ele>
    <time>2025-12-27T14:33:57Z</time>
   </trkpt>
   <trkpt lat="53.5647320" lon="-9.9091430">
    <ele>45.9</ele>
    <time>2025-12-27T14:34:03Z</time>
   </trkpt>
   <trkpt lat="53.5647730" lon="-9.9092130">
    <ele>45.9</ele>
    <time>2025-12-27T14:34:08Z</time>
   </trkpt>
   <trkpt lat="53.5647770" lon="-9.9092990">
    <ele>45.9</ele>
    <time>2025-12-27T14:34:13Z</time>
   </trkpt>
   <trkpt lat="53.5648240" lon="-9.9092840">
    <ele>45.9</ele>
    <time>2025-12-27T14:34:30Z</time>
   </trkpt>
   <trkpt lat="53.5648730" lon="-9.9092850">
    <ele>45.9</ele>
    <time>2025-12-27T14:34:35Z</time>
   </trkpt>
   <trkpt lat="53.5648280" lon="-9.9093080">
    <ele>45.9</ele>
    <time>2025-12-27T14:35:22Z</time>
   </trkpt>
   <trkpt lat="53.5648740" lon="-9.9092870">
    <ele>45.9</ele>
    <time>2025-12-27T14:35:32Z</time>
   </trkpt>
   <trkpt lat="53.5647460" lon="-9.9092110">
    <ele>45.9</ele>
    <time>2025-12-27T14:41:24Z</time>
   </trkpt>
   <trkpt lat="53.5649470" lon="-9.9092920">
    <ele>45.9</ele>
    <time>2025-12-27T14:41:29Z</time>
   </trkpt>
   <trkpt lat="53.5648970" lon="-9.9092770">
    <ele>45.9</ele>
    <time>2025-12-27T14:41:52Z</time>
   </trkpt>
   <trkpt lat="53.5648320" lon="-9.9092720">
    <ele>45.9</ele>
    <time>2025-12-27T14:41:57Z</time>
   </trkpt>
   <trkpt lat="53.5647860" lon="-9.9093670">
    <ele>45.9</ele>
    <time>2025-12-27T14:42:02Z</time>
   </trkpt>
   <trkpt lat="53.5647840" lon="-9.9094730">
    <ele>45.9</ele>
    <time>2025-12-27T14:42:08Z</time>
   </trkpt>
   <trkpt lat="53.5648350" lon="-9.9094610">
    <ele>45.9</ele>
    <time>2025-12-27T14:42:21Z</time>
   </trkpt>
   <trkpt lat="53.5648970" lon="-9.9094930">
    <ele>45.9</ele>
    <time>2025-12-27T14:42:26Z</time>
   </trkpt>
   <trkpt lat="53.5649230" lon="-9.9095670">
    <ele>45.9</ele>
    <time>2025-12-27T14:43:34Z</time>
   </trkpt>
   <trkpt lat="53.5649420" lon="-9.9096370">
    <ele>45.9</ele>
    <time>2025-12-27T14:43:53Z</time>
   </trkpt>
   <trkpt lat="53.5649190" lon="-9.9095700">
    <ele>45.9</ele>
    <time>2025-12-27T14:44:06Z</time>
   </trkpt>
   <trkpt lat="53.5649340" lon="-9.9094930">
    <ele>45.9</ele>
    <time>2025-12-27T14:44:42Z</time>
   </trkpt>
   <trkpt lat="53.5649290" lon="-9.9093980">
    <ele>45.9</ele>
    <time>2025-12-27T14:44:47Z</time>
   </trkpt>
   <trkpt lat="53.5649700" lon="-9.9093470">
    <ele>45.9</ele>
    <time>2025-12-27T14:44:53Z</time>
   </trkpt>
   <trkpt lat="53.5650150" lon="-9.9093750">
    <ele>45.9</ele>
    <time>2025-12-27T14:45:45Z</time>
   </trkpt>
   <trkpt lat="53.5650370" lon="-9.9094800">
    <ele>45.9</ele>
    <time>2025-12-27T14:45:51Z</time>
   </trkpt>
   <trkpt lat="53.5647310" lon="-9.9092060">
    <ele>45.9</ele>
    <time>2025-12-27T14:49:28Z</time>
   </trkpt>
   <trkpt lat="53.5649300" lon="-9.9092060">
    <ele>45.9</ele>
    <time>2025-12-27T14:49:33Z</time>
   </trkpt>
   <trkpt lat="53.5648960" lon="-9.9092630">
    <ele>45.9</ele>
    <time>2025-12-27T14:49:56Z</time>
   </trkpt>
   <trkpt lat="53.5648510" lon="-9.9094150">
    <ele>45.9</ele>
    <time>2025-12-27T14:50:01Z</time>
   </trkpt>
   <trkpt lat="53.5649290" lon="-9.9094890">
    <ele>45.9</ele>
    <time>2025-12-27T14:50:06Z</time>
   </trkpt>
   <trkpt lat="53.5649590" lon="-9.9095590">
    <ele>45.9</ele>
    <time>2025-12-27T14:50:24Z</time>
   </trkpt>
   <trkpt lat="53.5649590" lon="-9.9094830">
    <ele>45.9</ele>
    <time>2025-12-27T14:51:35Z</time>
   </trkpt>
   <trkpt lat="53.5649260" lon="-9.9094200">
    <ele>45.9</ele>
    <time>2025-12-27T14:51:50Z</time>
   </trkpt>
   <trkpt lat="53.5648730" lon="-9.9094590">
    <ele>45.9</ele>
    <time>2025-12-27T14:51:55Z</time>
   </trkpt>
   <trkpt lat="53.5648040" lon="-9.9094430">
    <ele>45.9</ele>
    <time>2025-12-27T14:52:00Z</time>
   </trkpt>
   <trkpt lat="53.5647520" lon="-9.9094570">
    <ele>45.4</ele>
    <time>2025-12-27T14:52:05Z</time>
   </trkpt>
   <trkpt lat="53.5647400" lon="-9.9095370">
    <ele>44.3</ele>
    <time>2025-12-27T14:52:12Z</time>
   </trkpt>
   <trkpt lat="53.5647330" lon="-9.9096120">
    <ele>43.1</ele>
    <time>2025-12-27T14:52:42Z</time>
   </trkpt>
   <trkpt lat="53.5647260" lon="-9.9096940">
    <ele>43.0</ele>
    <time>2025-12-27T14:52:47Z</time>
   </trkpt>
   <trkpt lat="53.5647130" lon="-9.9097810">
    <ele>42.7</ele>
    <time>2025-12-27T14:52:53Z</time>
   </trkpt>
   <trkpt lat="53.5646970" lon="-9.9098830">
    <ele>42.6</ele>
    <time>2025-12-27T14:52:58Z</time>
   </trkpt>
   <trkpt lat="53.5646700" lon="-9.9099660">
    <ele>42.4</ele>
    <time>2025-12-27T14:53:03Z</time>
   </trkpt>
   <trkpt lat="53.5646480" lon="-9.9100660">
    <ele>42.2</ele>
    <time>2025-12-27T14:53:09Z</time>
   </trkpt>
   <trkpt lat="53.5646820" lon="-9.9101240">
    <ele>42.0</ele>
    <time>2025-12-27T14:53:15Z</time>
   </trkpt>
   <trkpt lat="53.5647370" lon="-9.9101790">
    <ele>42.0</ele>
    <time>2025-12-27T14:53:20Z</time>
   </trkpt>
   <trkpt lat="53.5647810" lon="-9.9102230">
    <ele>42.2</ele>
    <time>2025-12-27T14:53:26Z</time>
   </trkpt>
   <trkpt lat="53.5647930" lon="-9.9102990">
    <ele>42.6</ele>
    <time>2025-12-27T14:53:31Z</time>
   </trkpt>
   <trkpt lat="53.5647820" lon="-9.9103770">
    <ele>43.0</ele>
    <time>2025-12-27T14:53:36Z</time>
   </trkpt>
   <trkpt lat="53.5647880" lon="-9.9104570">
    <ele>44.3</ele>
    <time>2025-12-27T14:54:00Z</time>
   </trkpt>
   <trkpt lat="53.5648140" lon="-9.9105390">
    <ele>44.5</ele>
    <time>2025-12-27T14:54:06Z</time>
   </trkpt>
   <trkpt lat="53.5648580" lon="-9.9105690">
    <ele>44.8</ele>
    <time>2025-12-27T14:54:14Z</time>
   </trkpt>
   <trkpt lat="53.5649180" lon="-9.9105840">
    <ele>45.1</ele>
    <time>2025-12-27T14:54:19Z</time>
   </trkpt>
   <trkpt lat="53.5649840" lon="-9.9106030">
    <ele>45.5</ele>
    <time>2025-12-27T14:54:25Z</time>
   </trkpt>
   <trkpt lat="53.5650250" lon="-9.9106620">
    <ele>45.8</ele>
    <time>2025-12-27T14:54:30Z</time>
   </trkpt>
   <trkpt lat="53.5650490" lon="-9.9107430">
    <ele>46.4</ele>
    <time>2025-12-27T14:54:35Z</time>
   </trkpt>
   <trkpt lat="53.5650430" lon="-9.9108490">
    <ele>46.9</ele>
    <time>2025-12-27T14:54:40Z</time>
   </trkpt>
   <trkpt lat="53.5650300" lon="-9.9109540">
    <ele>47.2</ele>
    <time>2025-12-27T14:54:45Z</time>
   </trkpt>
   <trkpt lat="53.5649990" lon="-9.9110260">
    <ele>47.6</ele>
    <time>2025-12-27T14:54:50Z</time>
   </trkpt>
   <trkpt lat="53.5649550" lon="-9.9110560">
    <ele>48.4</ele>
    <time>2025-12-27T14:55:15Z</time>
   </trkpt>
   <trkpt lat="53.5649130" lon="-9.9110250">
    <ele>47.5</ele>
    <time>2025-12-27T14:55:28Z</time>
   </trkpt>
   <trkpt lat="53.5648360" lon="-9.9109670">
    <ele>46.8</ele>
    <time>2025-12-27T14:55:33Z</time>
   </trkpt>
   <trkpt lat="53.5647830" lon="-9.9109740">
    <ele>44.9</ele>
    <time>2025-12-27T14:56:05Z</time>
   </trkpt>
   <trkpt lat="53.5647160" lon="-9.9109320">
    <ele>44.2</ele>
    <time>2025-12-27T14:56:10Z</time>
   </trkpt>
   <trkpt lat="53.5646710" lon="-9.9109240">
    <ele>43.2</ele>
    <time>2025-12-27T14:56:17Z</time>
   </trkpt>
   <trkpt lat="53.5646190" lon="-9.9109230">
    <ele>41.6</ele>
    <time>2025-12-27T14:56:27Z</time>
   </trkpt>
   <trkpt lat="53.5645490" lon="-9.9109390">
    <ele>40.7</ele>
    <time>2025-12-27T14:56:32Z</time>
   </trkpt>
   <trkpt lat="53.5644990" lon="-9.9109230">
    <ele>39.7</ele>
    <time>2025-12-27T14:56:37Z</time>
   </trkpt>
   <trkpt lat="53.5644410" lon="-9.9109280">
    <ele>39.0</ele>
    <time>2025-12-27T14:56:43Z</time>
   </trkpt>
   <trkpt lat="53.5643760" lon="-9.9109450">
    <ele>37.8</ele>
    <time>2025-12-27T14:56:48Z</time>
   </trkpt>
   <trkpt lat="53.5643270" lon="-9.9109970">
    <ele>36.8</ele>
    <time>2025-12-27T14:56:53Z</time>
   </trkpt>
   <trkpt lat="53.5643090" lon="-9.9111280">
    <ele>35.7</ele>
    <time>2025-12-27T14:56:58Z</time>
   </trkpt>
   <trkpt lat="53.5642570" lon="-9.9111620">
    <ele>34.2</ele>
    <time>2025-12-27T14:57:16Z</time>
   </trkpt>
   <trkpt lat="53.5641600" lon="-9.9111280">
    <ele>33.9</ele>
    <time>2025-12-27T14:57:21Z</time>
   </trkpt>
   <trkpt lat="53.5640810" lon="-9.9111160">
    <ele>33.7</ele>
    <time>2025-12-27T14:57:26Z</time>
   </trkpt>
   <trkpt lat="53.5640040" lon="-9.9111140">
    <ele>33.7</ele>
    <time>2025-12-27T14:57:31Z</time>
   </trkpt>
   <trkpt lat="53.5639270" lon="-9.9111200">
    <ele>33.8</ele>
    <time>2025-12-27T14:57:37Z</time>
   </trkpt>
   <trkpt lat="53.5638820" lon="-9.9110270">
    <ele>33.6</ele>
    <time>2025-12-27T14:57:42Z</time>
   </trkpt>
   <trkpt lat="53.5638730" lon="-9.9109070">
    <ele>33.5</ele>
    <time>2025-12-27T14:57:48Z</time>
   </trkpt>
   <trkpt lat="53.5638630" lon="-9.9107930">
    <ele>34.0</ele>
    <time>2025-12-27T14:57:53Z</time>
   </trkpt>
   <trkpt lat="53.5638530" lon="-9.9106760">
    <ele>34.4</ele>
    <time>2025-12-27T14:57:59Z</time>
   </trkpt>
   <trkpt lat="53.5638410" lon="-9.9105880">
    <ele>34.3</ele>
    <time>2025-12-27T14:58:04Z</time>
   </trkpt>
   <trkpt lat="53.5638350" lon="-9.9104970">
    <ele>34.1</ele>
    <time>2025-12-27T14:58:09Z</time>
   </trkpt>
   <trkpt lat="53.5638220" lon="-9.9103820">
    <ele>34.2</ele>
    <time>2025-12-27T14:58:14Z</time>
   </trkpt>
   <trkpt lat="53.5638500" lon="-9.9103170">
    <ele>34.5</ele>
    <time>2025-12-27T14:58:20Z</time>
   </trkpt>
   <trkpt lat="53.5638350" lon="-9.9102370">
    <ele>34.8</ele>
    <time>2025-12-27T14:58:33Z</time>
   </trkpt>
   <trkpt lat="53.5638260" lon="-9.9101370">
    <ele>34.7</ele>
    <time>2025-12-27T14:58:39Z</time>
   </trkpt>
   <trkpt lat="53.5638210" lon="-9.9100550">
    <ele>35.4</ele>
    <time>2025-12-27T14:58:49Z</time>
   </trkpt>
   <trkpt lat="53.5638230" lon="-9.9099330">
    <ele>35.7</ele>
    <time>2025-12-27T14:58:54Z</time>
   </trkpt>
   <trkpt lat="53.5638280" lon="-9.9098240">
    <ele>36.0</ele>
    <time>2025-12-27T14:58:59Z</time>
   </trkpt>
   <trkpt lat="53.5638260" lon="-9.9097340">
    <ele>36.5</ele>
    <time>2025-12-27T14:59:04Z</time>
   </trkpt>
   <trkpt lat="53.5637870" lon="-9.9096700">
    <ele>37.2</ele>
    <time>2025-12-27T14:59:10Z</time>
   </trkpt>
   <trkpt lat="53.5637600" lon="-9.9095860">
    <ele>38.0</ele>
    <time>2025-12-27T14:59:15Z</time>
   </trkpt>
   <trkpt lat="53.5637410" lon="-9.9095040">
    <ele>38.8</ele>
    <time>2025-12-27T14:59:20Z</time>
   </trkpt>
   <trkpt lat="53.5637220" lon="-9.9094110">
    <ele>40.0</ele>
    <time>2025-12-27T14:59:25Z</time>
   </trkpt>
   <trkpt lat="53.5637050" lon="-9.9093030">
    <ele>41.0</ele>
    <time>2025-12-27T14:59:31Z</time>
   </trkpt>
   <trkpt lat="53.5636920" lon="-9.9091940">
    <ele>41.7</ele>
    <time>2025-12-27T14:59:36Z</time>
   </trkpt>
   <trkpt lat="53.5637090" lon="-9.9090850">
    <ele>42.2</ele>
    <time>2025-12-27T14:59:41Z</time>
   </trkpt>
   <trkpt lat="53.5637110" lon="-9.9089810">
    <ele>42.5</ele>
    <time>2025-12-27T14:59:46Z</time>
   </trkpt>
   <trkpt lat="53.5636360" lon="-9.9089500">
    <ele>42.8</ele>
    <time>2025-12-27T14:59:52Z</time>
   </trkpt>
   <trkpt lat="53.5635860" lon="-9.9089600">
    <ele>43.1</ele>
    <time>2025-12-27T14:59:57Z</time>
   </trkpt>
   <trkpt lat="53.5635210" lon="-9.9089490">
    <ele>43.4</ele>
    <time>2025-12-27T15:00:02Z</time>
   </trkpt>
   <trkpt lat="53.5634800" lon="-9.9088780">
    <ele>43.5</ele>
    <time>2025-12-27T15:00:07Z</time>
   </trkpt>
   <trkpt lat="53.5634300" lon="-9.9088230">
    <ele>43.7</ele>
    <time>2025-12-27T15:00:12Z</time>
   </trkpt>
   <trkpt lat="53.5634670" lon="-9.9087460">
    <ele>44.1</ele>
    <time>2025-12-27T15:00:18Z</time>
   </trkpt>
   <trkpt lat="53.5635100" lon="-9.9086690">
    <ele>45.1</ele>
    <time>2025-12-27T15:00:23Z</time>
   </trkpt>
   <trkpt lat="53.5635550" lon="-9.9085590">
    <ele>44.9</ele>
    <time>2025-12-27T15:00:28Z</time>
   </trkpt>
   <trkpt lat="53.5636180" lon="-9.9084650">
    <ele>44.5</ele>
    <time>2025-12-27T15:00:34Z</time>
   </trkpt>
   <trkpt lat="53.5636600" lon="-9.9084250">
    <ele>44.0</ele>
    <time>2025-12-27T15:00:39Z</time>
   </trkpt>
   <trkpt lat="53.5637040" lon="-9.9084520">
    <ele>43.3</ele>
    <time>2025-12-27T15:00:45Z</time>
   </trkpt>
   <trkpt lat="53.5637530" lon="-9.9085360">
    <ele>42.5</ele>
    <time>2025-12-27T15:00:51Z</time>
   </trkpt>
   <trkpt lat="53.5638170" lon="-9.9085830">
    <ele>41.7</ele>
    <time>2025-12-27T15:00:56Z</time>
   </trkpt>
   <trkpt lat="53.5638920" lon="-9.9086250">
    <ele>40.7</ele>
    <time>2025-12-27T15:01:01Z</time>
   </trkpt>
   <trkpt lat="53.5639500" lon="-9.9085510">
    <ele>39.7</ele>
    <time>2025-12-27T15:01:07Z</time>
   </trkpt>
   <trkpt lat="53.5639150" lon="-9.9084030">
    <ele>38.6</ele>
    <time>2025-12-27T15:01:12Z</time>
   </trkpt>
   <trkpt lat="53.5638890" lon="-9.9082690">
    <ele>38.0</ele>
    <time>2025-12-27T15:01:18Z</time>
   </trkpt>
   <trkpt lat="53.5638600" lon="-9.9081550">
    <ele>37.8</ele>
    <time>2025-12-27T15:01:23Z</time>
   </trkpt>
   <trkpt lat="53.5638280" lon="-9.9080670">
    <ele>37.2</ele>
    <time>2025-12-27T15:01:29Z</time>
   </trkpt>
   <trkpt lat="53.5637900" lon="-9.9080200">
    <ele>36.6</ele>
    <time>2025-12-27T15:01:36Z</time>
   </trkpt>
   <trkpt lat="53.5637410" lon="-9.9079290">
    <ele>36.2</ele>
    <time>2025-12-27T15:01:41Z</time>
   </trkpt>
   <trkpt lat="53.5636940" lon="-9.9078170">
    <ele>36.0</ele>
    <time>2025-12-27T15:01:47Z</time>
   </trkpt>
   <trkpt lat="53.5636230" lon="-9.9077400">
    <ele>35.7</ele>
    <time>2025-12-27T15:01:52Z</time>
   </trkpt>
   <trkpt lat="53.5635860" lon="-9.9076240">
    <ele>35.3</ele>
    <time>2025-12-27T15:01:57Z</time>
   </trkpt>
   <trkpt lat="53.5635540" lon="-9.9075170">
    <ele>34.9</ele>
    <time>2025-12-27T15:02:03Z</time>
   </trkpt>
   <trkpt lat="53.5635250" lon="-9.9074260">
    <ele>34.8</ele>
    <time>2025-12-27T15:02:08Z</time>
   </trkpt>
   <trkpt lat="53.5634590" lon="-9.9073270">
    <ele>34.7</ele>
    <time>2025-12-27T15:02:14Z</time>
   </trkpt>
   <trkpt lat="53.5633970" lon="-9.9072320">
    <ele>34.3</ele>
    <time>2025-12-27T15:02:19Z</time>
   </trkpt>
   <trkpt lat="53.5633250" lon="-9.9071950">
    <ele>33.8</ele>
    <time>2025-12-27T15:02:24Z</time>
   </trkpt>
   <trkpt lat="53.5632930" lon="-9.9071330">
    <ele>33.3</ele>
    <time>2025-12-27T15:02:30Z</time>
   </trkpt>
   <trkpt lat="53.5632610" lon="-9.9070530">
    <ele>33.1</ele>
    <time>2025-12-27T15:02:36Z</time>
   </trkpt>
   <trkpt lat="53.5632190" lon="-9.9069630">
    <ele>32.9</ele>
    <time>2025-12-27T15:02:41Z</time>
   </trkpt>
   <trkpt lat="53.5631770" lon="-9.9068660">
    <ele>32.4</ele>
    <time>2025-12-27T15:02:46Z</time>
   </trkpt>
   <trkpt lat="53.5631360" lon="-9.9067290">
    <ele>32.0</ele>
    <time>2025-12-27T15:02:52Z</time>
   </trkpt>
   <trkpt lat="53.5631320" lon="-9.9066040">
    <ele>31.8</ele>
    <time>2025-12-27T15:02:57Z</time>
   </trkpt>
   <trkpt lat="53.5631440" lon="-9.9065050">
    <ele>31.7</ele>
    <time>2025-12-27T15:03:03Z</time>
   </trkpt>
   <trkpt lat="53.5631600" lon="-9.9064080">
    <ele>31.6</ele>
    <time>2025-12-27T15:03:08Z</time>
   </trkpt>
   <trkpt lat="53.5631640" lon="-9.9063230">
    <ele>31.4</ele>
    <time>2025-12-27T15:03:14Z</time>
   </trkpt>
   <trkpt lat="53.5631210" lon="-9.9061750">
    <ele>31.5</ele>
    <time>2025-12-27T15:03:20Z</time>
   </trkpt>
   <trkpt lat="53.5630730" lon="-9.9059980">
    <ele>31.4</ele>
    <time>2025-12-27T15:03:25Z</time>
   </trkpt>
   <trkpt lat="53.5630820" lon="-9.9058500">
    <ele>31.4</ele>
    <time>2025-12-27T15:03:31Z</time>
   </trkpt>
   <trkpt lat="53.5630930" lon="-9.9057400">
    <ele>31.7</ele>
    <time>2025-12-27T15:03:36Z</time>
   </trkpt>
   <trkpt lat="53.5630920" lon="-9.9056360">
    <ele>32.0</ele>
    <time>2025-12-27T15:03:41Z</time>
   </trkpt>
   <trkpt lat="53.5631020" lon="-9.9055510">
    <ele>32.2</ele>
    <time>2025-12-27T15:03:46Z</time>
   </trkpt>
   <trkpt lat="53.5630770" lon="-9.9054540">
    <ele>32.2</ele>
    <time>2025-12-27T15:03:52Z</time>
   </trkpt>
   <trkpt lat="53.5630320" lon="-9.9053460">
    <ele>32.2</ele>
    <time>2025-12-27T15:03:57Z</time>
   </trkpt>
   <trkpt lat="53.5630190" lon="-9.9052390">
    <ele>32.2</ele>
    <time>2025-12-27T15:04:02Z</time>
   </trkpt>
   <trkpt lat="53.5630110" lon="-9.9051270">
    <ele>32.3</ele>
    <time>2025-12-27T15:04:08Z</time>
   </trkpt>
   <trkpt lat="53.5630020" lon="-9.9050020">
    <ele>32.3</ele>
    <time>2025-12-27T15:04:13Z</time>
   </trkpt>
   <trkpt lat="53.5630140" lon="-9.9048730">
    <ele>32.3</ele>
    <time>2025-12-27T15:04:19Z</time>
   </trkpt>
   <trkpt lat="53.5630160" lon="-9.9047530">
    <ele>32.2</ele>
    <time>2025-12-27T15:04:24Z</time>
   </trkpt>
   <trkpt lat="53.5629960" lon="-9.9046380">
    <ele>32.0</ele>
    <time>2025-12-27T15:04:30Z</time>
   </trkpt>
   <trkpt lat="53.5629670" lon="-9.9045410">
    <ele>31.8</ele>
    <time>2025-12-27T15:04:35Z</time>
   </trkpt>
   <trkpt lat="53.5629620" lon="-9.9044630">
    <ele>31.6</ele>
    <time>2025-12-27T15:04:41Z</time>
   </trkpt>
   <trkpt lat="53.5629560" lon="-9.9043680">
    <ele>31.5</ele>
    <time>2025-12-27T15:04:46Z</time>
   </trkpt>
   <trkpt lat="53.5629580" lon="-9.9042450">
    <ele>31.4</ele>
    <time>2025-12-27T15:04:52Z</time>
   </trkpt>
   <trkpt lat="53.5629600" lon="-9.9041590">
    <ele>31.4</ele>
    <time>2025-12-27T15:04:57Z</time>
   </trkpt>
   <trkpt lat="53.5629480" lon="-9.9040630">
    <ele>31.3</ele>
    <time>2025-12-27T15:05:02Z</time>
   </trkpt>
   <trkpt lat="53.5629490" lon="-9.9039440">
    <ele>31.2</ele>
    <time>2025-12-27T15:05:07Z</time>
   </trkpt>
   <trkpt lat="53.5629620" lon="-9.9038310">
    <ele>30.9</ele>
    <time>2025-12-27T15:05:13Z</time>
   </trkpt>
   <trkpt lat="53.5629510" lon="-9.9037130">
    <ele>30.8</ele>
    <time>2025-12-27T15:05:18Z</time>
   </trkpt>
   <trkpt lat="53.5629220" lon="-9.9036040">
    <ele>30.6</ele>
    <time>2025-12-27T15:05:23Z</time>
   </trkpt>
   <trkpt lat="53.5629080" lon="-9.9034890">
    <ele>30.2</ele>
    <time>2025-12-27T15:05:29Z</time>
   </trkpt>
   <trkpt lat="53.5629100" lon="-9.9033700">
    <ele>30.1</ele>
    <time>2025-12-27T15:05:34Z</time>
   </trkpt>
   <trkpt lat="53.5629350" lon="-9.9032540">
    <ele>30.0</ele>
    <time>2025-12-27T15:05:39Z</time>
   </trkpt>
   <trkpt lat="53.5629500" lon="-9.9031720">
    <ele>29.7</ele>
    <time>2025-12-27T15:05:44Z</time>
   </trkpt>
   <trkpt lat="53.5629650" lon="-9.9030500">
    <ele>29.3</ele>
    <time>2025-12-27T15:05:50Z</time>
   </trkpt>
   <trkpt lat="53.5629660" lon="-9.9028900">
    <ele>29.1</ele>
    <time>2025-12-27T15:05:55Z</time>
   </trkpt>
   <trkpt lat="53.5629390" lon="-9.9027710">
    <ele>29.0</ele>
    <time>2025-12-27T15:06:01Z</time>
   </trkpt>
   <trkpt lat="53.5629230" lon="-9.9026710">
    <ele>29.0</ele>
    <time>2025-12-27T15:06:06Z</time>
   </trkpt>
   <trkpt lat="53.5629070" lon="-9.9025570">
    <ele>28.9</ele>
    <time>2025-12-27T15:06:11Z</time>
   </trkpt>
   <trkpt lat="53.5628960" lon="-9.9024470">
    <ele>28.9</ele>
    <time>2025-12-27T15:06:16Z</time>
   </trkpt>
   <trkpt lat="53.5628870" lon="-9.9023310">
    <ele>28.9</ele>
    <time>2025-12-27T15:06:21Z</time>
   </trkpt>
   <trkpt lat="53.5628850" lon="-9.9022050">
    <ele>29.3</ele>
    <time>2025-12-27T15:06:27Z</time>
   </trkpt>
   <trkpt lat="53.5628880" lon="-9.9020890">
    <ele>29.5</ele>
    <time>2025-12-27T15:06:32Z</time>
   </trkpt>
   <trkpt lat="53.5629120" lon="-9.9019640">
    <ele>29.3</ele>
    <time>2025-12-27T15:06:38Z</time>
   </trkpt>
   <trkpt lat="53.5629210" lon="-9.9018260">
    <ele>29.2</ele>
    <time>2025-12-27T15:06:43Z</time>
   </trkpt>
   <trkpt lat="53.5629290" lon="-9.9017020">
    <ele>29.1</ele>
    <time>2025-12-27T15:06:49Z</time>
   </trkpt>
   <trkpt lat="53.5629040" lon="-9.9015810">
    <ele>29.0</ele>
    <time>2025-12-27T15:06:54Z</time>
   </trkpt>
   <trkpt lat="53.5628840" lon="-9.9014740">
    <ele>29.1</ele>
    <time>2025-12-27T15:07:00Z</time>
   </trkpt>
   <trkpt lat="53.5628890" lon="-9.9013660">
    <ele>29.2</ele>
    <time>2025-12-27T15:07:05Z</time>
   </trkpt>
   <trkpt lat="53.5628930" lon="-9.9012500">
    <ele>29.2</ele>
    <time>2025-12-27T15:07:11Z</time>
   </trkpt>
   <trkpt lat="53.5628730" lon="-9.9011190">
    <ele>29.1</ele>
    <time>2025-12-27T15:07:16Z</time>
   </trkpt>
   <trkpt lat="53.5628490" lon="-9.9009920">
    <ele>29.1</ele>
    <time>2025-12-27T15:07:22Z</time>
   </trkpt>
   <trkpt lat="53.5628230" lon="-9.9008820">
    <ele>28.9</ele>
    <time>2025-12-27T15:07:27Z</time>
   </trkpt>
   <trkpt lat="53.5628210" lon="-9.9007610">
    <ele>28.9</ele>
    <time>2025-12-27T15:07:33Z</time>
   </trkpt>
   <trkpt lat="53.5628530" lon="-9.9006460">
    <ele>29.1</ele>
    <time>2025-12-27T15:07:38Z</time>
   </trkpt>
   <trkpt lat="53.5628900" lon="-9.9005280">
    <ele>29.1</ele>
    <time>2025-12-27T15:07:44Z</time>
   </trkpt>
   <trkpt lat="53.5629110" lon="-9.9004150">
    <ele>29.0</ele>
    <time>2025-12-27T15:07:49Z</time>
   </trkpt>
   <trkpt lat="53.5629220" lon="-9.9002830">
    <ele>29.1</ele>
    <time>2025-12-27T15:07:55Z</time>
   </trkpt>
   <trkpt lat="53.5629440" lon="-9.9001680">
    <ele>29.0</ele>
    <time>2025-12-27T15:08:00Z</time>
   </trkpt>
   <trkpt lat="53.5629660" lon="-9.9000590">
    <ele>28.9</ele>
    <time>2025-12-27T15:08:06Z</time>
   </trkpt>
   <trkpt lat="53.5629660" lon="-9.8999480">
    <ele>28.8</ele>
    <time>2025-12-27T15:08:11Z</time>
   </trkpt>
   <trkpt lat="53.5629420" lon="-9.8998370">
    <ele>28.8</ele>
    <time>2025-12-27T15:08:16Z</time>
   </trkpt>
   <trkpt lat="53.5629320" lon="-9.8997350">
    <ele>28.9</ele>
    <time>2025-12-27T15:08:22Z</time>
   </trkpt>
   <trkpt lat="53.5629240" lon="-9.8996340">
    <ele>29.1</ele>
    <time>2025-12-27T15:08:27Z</time>
   </trkpt>
   <trkpt lat="53.5629130" lon="-9.8995110">
    <ele>29.0</ele>
    <time>2025-12-27T15:08:33Z</time>
   </trkpt>
   <trkpt lat="53.5629040" lon="-9.8993660">
    <ele>29.0</ele>
    <time>2025-12-27T15:08:38Z</time>
   </trkpt>
   <trkpt lat="53.5628780" lon="-9.8992480">
    <ele>29.3</ele>
    <time>2025-12-27T15:08:44Z</time>
   </trkpt>
   <trkpt lat="53.5628630" lon="-9.8991210">
    <ele>29.5</ele>
    <time>2025-12-27T15:08:49Z</time>
   </trkpt>
   <trkpt lat="53.5628480" lon="-9.8990080">
    <ele>29.3</ele>
    <time>2025-12-27T15:08:55Z</time>
   </trkpt>
   <trkpt lat="53.5628330" lon="-9.8988840">
    <ele>29.1</ele>
    <time>2025-12-27T15:09:00Z</time>
   </trkpt>
   <trkpt lat="53.5628100" lon="-9.8987680">
    <ele>29.2</ele>
    <time>2025-12-27T15:09:06Z</time>
   </trkpt>
   <trkpt lat="53.5627800" lon="-9.8986580">
    <ele>29.5</ele>
    <time>2025-12-27T15:09:11Z</time>
   </trkpt>
   <trkpt lat="53.5627580" lon="-9.8985340">
    <ele>29.5</ele>
    <time>2025-12-27T15:09:17Z</time>
   </trkpt>
   <trkpt lat="53.5627350" lon="-9.8984010">
    <ele>29.4</ele>
    <time>2025-12-27T15:09:22Z</time>
   </trkpt>
   <trkpt lat="53.5626990" lon="-9.8983120">
    <ele>29.3</ele>
    <time>2025-12-27T15:09:28Z</time>
   </trkpt>
   <trkpt lat="53.5626640" lon="-9.8982130">
    <ele>29.6</ele>
    <time>2025-12-27T15:09:33Z</time>
   </trkpt>
   <trkpt lat="53.5626540" lon="-9.8980830">
    <ele>29.8</ele>
    <time>2025-12-27T15:09:39Z</time>
   </trkpt>
   <trkpt lat="53.5626460" lon="-9.8979400">
    <ele>29.7</ele>
    <time>2025-12-27T15:09:44Z</time>
   </trkpt>
   <trkpt lat="53.5626430" lon="-9.8978240">
    <ele>29.6</ele>
    <time>2025-12-27T15:09:50Z</time>
   </trkpt>
   <trkpt lat="53.5626340" lon="-9.8977110">
    <ele>29.4</ele>
    <time>2025-12-27T15:09:55Z</time>
   </trkpt>
   <trkpt lat="53.5626080" lon="-9.8976080">
    <ele>29.6</ele>
    <time>2025-12-27T15:10:01Z</time>
   </trkpt>
   <trkpt lat="53.5625870" lon="-9.8974960">
    <ele>29.8</ele>
    <time>2025-12-27T15:10:06Z</time>
   </trkpt>
   <trkpt lat="53.5625770" lon="-9.8973770">
    <ele>29.7</ele>
    <time>2025-12-27T15:10:12Z</time>
   </trkpt>
   <trkpt lat="53.5625540" lon="-9.8972880">
    <ele>29.6</ele>
    <time>2025-12-27T15:10:17Z</time>
   </trkpt>
   <trkpt lat="53.5625510" lon="-9.8972080">
    <ele>29.8</ele>
    <time>2025-12-27T15:10:22Z</time>
   </trkpt>
   <trkpt lat="53.5625690" lon="-9.8970690">
    <ele>30.3</ele>
    <time>2025-12-27T15:10:27Z</time>
   </trkpt>
   <trkpt lat="53.5625560" lon="-9.8969530">
    <ele>30.7</ele>
    <time>2025-12-27T15:10:32Z</time>
   </trkpt>
   <trkpt lat="53.5625410" lon="-9.8968650">
    <ele>30.5</ele>
    <time>2025-12-27T15:10:38Z</time>
   </trkpt>
   <trkpt lat="53.5625370" lon="-9.8967820">
    <ele>31.1</ele>
    <time>2025-12-27T15:10:46Z</time>
   </trkpt>
   <trkpt lat="53.5625010" lon="-9.8966570">
    <ele>31.4</ele>
    <time>2025-12-27T15:10:51Z</time>
   </trkpt>
   <trkpt lat="53.5625050" lon="-9.8965260">
    <ele>31.2</ele>
    <time>2025-12-27T15:10:57Z</time>
   </trkpt>
   <trkpt lat="53.5625050" lon="-9.8964190">
    <ele>31.2</ele>
    <time>2025-12-27T15:11:02Z</time>
   </trkpt>
   <trkpt lat="53.5624910" lon="-9.8963050">
    <ele>31.3</ele>
    <time>2025-12-27T15:11:07Z</time>
   </trkpt>
   <trkpt lat="53.5624720" lon="-9.8961880">
    <ele>31.0</ele>
    <time>2025-12-27T15:11:13Z</time>
   </trkpt>
   <trkpt lat="53.5624530" lon="-9.8960680">
    <ele>31.2</ele>
    <time>2025-12-27T15:11:18Z</time>
   </trkpt>
   <trkpt lat="53.5624360" lon="-9.8959510">
    <ele>31.5</ele>
    <time>2025-12-27T15:11:24Z</time>
   </trkpt>
   <trkpt lat="53.5624250" lon="-9.8958500">
    <ele>31.7</ele>
    <time>2025-12-27T15:11:29Z</time>
   </trkpt>
   <trkpt lat="53.5624230" lon="-9.8957660">
    <ele>31.8</ele>
    <time>2025-12-27T15:11:35Z</time>
   </trkpt>
   <trkpt lat="53.5623620" lon="-9.8956820">
    <ele>31.7</ele>
    <time>2025-12-27T15:11:41Z</time>
   </trkpt>
   <trkpt lat="53.5623100" lon="-9.8956020">
    <ele>31.8</ele>
    <time>2025-12-27T15:11:46Z</time>
   </trkpt>
   <trkpt lat="53.5622690" lon="-9.8955400">
    <ele>31.9</ele>
    <time>2025-12-27T15:11:51Z</time>
   </trkpt>
   <trkpt lat="53.5622300" lon="-9.8954920">
    <ele>31.8</ele>
    <time>2025-12-27T15:11:56Z</time>
   </trkpt>
   <trkpt lat="53.5621990" lon="-9.8954340">
    <ele>32.0</ele>
    <time>2025-12-27T15:12:01Z</time>
   </trkpt>
   <trkpt lat="53.5621840" lon="-9.8953620">
    <ele>32.1</ele>
    <time>2025-12-27T15:12:06Z</time>
   </trkpt>
   <trkpt lat="53.5621590" lon="-9.8952850">
    <ele>32.1</ele>
    <time>2025-12-27T15:12:11Z</time>
   </trkpt>
   <trkpt lat="53.5621340" lon="-9.8952070">
    <ele>31.9</ele>
    <time>2025-12-27T15:12:16Z</time>
   </trkpt>
   <trkpt lat="53.5621090" lon="-9.8950600">
    <ele>31.8</ele>
    <time>2025-12-27T15:12:21Z</time>
   </trkpt>
   <trkpt lat="53.5620620" lon="-9.8949140">
    <ele>31.7</ele>
    <time>2025-12-27T15:12:26Z</time>
   </trkpt>
   <trkpt lat="53.5620380" lon="-9.8947910">
    <ele>31.7</ele>
    <time>2025-12-27T15:12:32Z</time>
   </trkpt>
   <trkpt lat="53.5620100" lon="-9.8946790">
    <ele>31.9</ele>
    <time>2025-12-27T15:12:37Z</time>
   </trkpt>
   <trkpt lat="53.5619820" lon="-9.8945810">
    <ele>32.2</ele>
    <time>2025-12-27T15:12:42Z</time>
   </trkpt>
   <trkpt lat="53.5619610" lon="-9.8944800">
    <ele>32.2</ele>
    <time>2025-12-27T15:12:47Z</time>
   </trkpt>
   <trkpt lat="53.5619600" lon="-9.8943730">
    <ele>32.2</ele>
    <time>2025-12-27T15:12:52Z</time>
   </trkpt>
   <trkpt lat="53.5619500" lon="-9.8942690">
    <ele>32.1</ele>
    <time>2025-12-27T15:12:57Z</time>
   </trkpt>
   <trkpt lat="53.5619300" lon="-9.8941560">
    <ele>32.6</ele>
    <time>2025-12-27T15:13:02Z</time>
   </trkpt>
   <trkpt lat="53.5618910" lon="-9.8940500">
    <ele>32.9</ele>
    <time>2025-12-27T15:13:08Z</time>
   </trkpt>
   <trkpt lat="53.5618630" lon="-9.8939510">
    <ele>33.0</ele>
    <time>2025-12-27T15:13:13Z</time>
   </trkpt>
   <trkpt lat="53.5618380" lon="-9.8938510">
    <ele>33.0</ele>
    <time>2025-12-27T15:13:18Z</time>
   </trkpt>
   <trkpt lat="53.5618210" lon="-9.8937390">
    <ele>33.1</ele>
    <time>2025-12-27T15:13:23Z</time>
   </trkpt>
   <trkpt lat="53.5618080" lon="-9.8936320">
    <ele>33.2</ele>
    <time>2025-12-27T15:13:28Z</time>
   </trkpt>
   <trkpt lat="53.5617970" lon="-9.8935110">
    <ele>33.2</ele>
    <time>2025-12-27T15:13:34Z</time>
   </trkpt>
   <trkpt lat="53.5618130" lon="-9.8933950">
    <ele>33.2</ele>
    <time>2025-12-27T15:13:39Z</time>
   </trkpt>
   <trkpt lat="53.5618000" lon="-9.8932740">
    <ele>33.1</ele>
    <time>2025-12-27T15:13:45Z</time>
   </trkpt>
   <trkpt lat="53.5617640" lon="-9.8931580">
    <ele>33.2</ele>
    <time>2025-12-27T15:13:50Z</time>
   </trkpt>
   <trkpt lat="53.5617490" lon="-9.8930630">
    <ele>33.2</ele>
    <time>2025-12-27T15:13:56Z</time>
   </trkpt>
   <trkpt lat="53.5617300" lon="-9.8929290">
    <ele>33.2</ele>
    <time>2025-12-27T15:14:01Z</time>
   </trkpt>
   <trkpt lat="53.5617140" lon="-9.8927960">
    <ele>33.2</ele>
    <time>2025-12-27T15:14:06Z</time>
   </trkpt>
   <trkpt lat="53.5617130" lon="-9.8926850">
    <ele>33.2</ele>
    <time>2025-12-27T15:14:12Z</time>
   </trkpt>
   <trkpt lat="53.5617030" lon="-9.8925710">
    <ele>33.2</ele>
    <time>2025-12-27T15:14:17Z</time>
   </trkpt>
   <trkpt lat="53.5616840" lon="-9.8924470">
    <ele>33.2</ele>
    <time>2025-12-27T15:14:23Z</time>
   </trkpt>
   <trkpt lat="53.5616700" lon="-9.8923200">
    <ele>33.2</ele>
    <time>2025-12-27T15:14:28Z</time>
   </trkpt>
   <trkpt lat="53.5616560" lon="-9.8922160">
    <ele>33.2</ele>
    <time>2025-12-27T15:14:33Z</time>
   </trkpt>
   <trkpt lat="53.5616310" lon="-9.8921200">
    <ele>33.2</ele>
    <time>2025-12-27T15:14:38Z</time>
   </trkpt>
   <trkpt lat="53.5616090" lon="-9.8920120">
    <ele>33.2</ele>
    <time>2025-12-27T15:14:44Z</time>
   </trkpt>
   <trkpt lat="53.5615940" lon="-9.8919040">
    <ele>33.2</ele>
    <time>2025-12-27T15:14:49Z</time>
   </trkpt>
   <trkpt lat="53.5615770" lon="-9.8918040">
    <ele>33.2</ele>
    <time>2025-12-27T15:14:55Z</time>
   </trkpt>
   <trkpt lat="53.5615770" lon="-9.8917070">
    <ele>33.2</ele>
    <time>2025-12-27T15:15:00Z</time>
   </trkpt>
   <trkpt lat="53.5615410" lon="-9.8916590">
    <ele>33.2</ele>
    <time>2025-12-27T15:15:10Z</time>
   </trkpt>
   <trkpt lat="53.5615170" lon="-9.8915030">
    <ele>33.2</ele>
    <time>2025-12-27T15:15:15Z</time>
   </trkpt>
   <trkpt lat="53.5614490" lon="-9.8914820">
    <ele>33.2</ele>
    <time>2025-12-27T15:15:21Z</time>
   </trkpt>
   <trkpt lat="53.5614050" lon="-9.8915200">
    <ele>33.1</ele>
    <time>2025-12-27T15:15:32Z</time>
   </trkpt>
   <trkpt lat="53.5613200" lon="-9.8916070">
    <ele>33.2</ele>
    <time>2025-12-27T15:15:37Z</time>
   </trkpt>
   <trkpt lat="53.5613590" lon="-9.8916510">
    <ele>33.3</ele>
    <time>2025-12-27T15:16:18Z</time>
   </trkpt>
   <trkpt lat="53.5613190" lon="-9.8916110">
    <ele>33.3</ele>
    <time>2025-12-27T15:16:54Z</time>
   </trkpt>
   <trkpt lat="53.5613710" lon="-9.8916180">
    <ele>33.3</ele>
    <time>2025-12-27T15:17:54Z</time>
   </trkpt>
   <trkpt lat="53.5614230" lon="-9.8915700">
    <ele>33.3</ele>
    <time>2025-12-27T15:17:59Z</time>
   </trkpt>
   <trkpt lat="53.5614500" lon="-9.8914710">
    <ele>33.3</ele>
    <time>2025-12-27T15:18:04Z</time>
   </trkpt>
   <trkpt lat="53.5614430" lon="-9.8913290">
    <ele>33.2</ele>
    <time>2025-12-27T15:18:10Z</time>
   </trkpt>
   <trkpt lat="53.5614140" lon="-9.8911830">
    <ele>33.2</ele>
    <time>2025-12-27T15:18:15Z</time>
   </trkpt>
   <trkpt lat="53.5613840" lon="-9.8910550">
    <ele>33.2</ele>
    <time>2025-12-27T15:18:21Z</time>
   </trkpt>
   <trkpt lat="53.5613560" lon="-9.8909460">
    <ele>33.2</ele>
    <time>2025-12-27T15:18:26Z</time>
   </trkpt>
   <trkpt lat="53.5613020" lon="-9.8908680">
    <ele>33.2</ele>
    <time>2025-12-27T15:18:31Z</time>
   </trkpt>
   <trkpt lat="53.5612250" lon="-9.8908840">
    <ele>33.2</ele>
    <time>2025-12-27T15:18:37Z</time>
   </trkpt>
   <trkpt lat="53.5611600" lon="-9.8908940">
    <ele>32.7</ele>
    <time>2025-12-27T15:18:42Z</time>
   </trkpt>
   <trkpt lat="53.5610960" lon="-9.8909010">
    <ele>32.2</ele>
    <time>2025-12-27T15:18:47Z</time>
   </trkpt>
   <trkpt lat="53.5610560" lon="-9.8909470">
    <ele>31.9</ele>
    <time>2025-12-27T15:18:54Z</time>
   </trkpt>
   <trkpt lat="53.5609830" lon="-9.8910030">
    <ele>31.8</ele>
    <time>2025-12-27T15:19:00Z</time>
   </trkpt>
   <trkpt lat="53.5609150" lon="-9.8910260">
    <ele>31.8</ele>
    <time>2025-12-27T15:19:05Z</time>
   </trkpt>
   <trkpt lat="53.5608470" lon="-9.8910270">
    <ele>31.7</ele>
    <time>2025-12-27T15:19:10Z</time>
   </trkpt>
   <trkpt lat="53.5607980" lon="-9.8909960">
    <ele>31.7</ele>
    <time>2025-12-27T15:19:15Z</time>
   </trkpt>
   <trkpt lat="53.5607460" lon="-9.8909840">
    <ele>31.6</ele>
    <time>2025-12-27T15:19:59Z</time>
   </trkpt>
   <trkpt lat="53.5606430" lon="-9.8910300">
    <ele>31.7</ele>
    <time>2025-12-27T15:20:04Z</time>
   </trkpt>
   <trkpt lat="53.5605410" lon="-9.8910070">
    <ele>31.7</ele>
    <time>2025-12-27T15:20:10Z</time>
   </trkpt>
   <trkpt lat="53.5604600" lon="-9.8910190">
    <ele>31.7</ele>
    <time>2025-12-27T15:20:15Z</time>
   </trkpt>
   <trkpt lat="53.5603730" lon="-9.8910210">
    <ele>31.7</ele>
    <time>2025-12-27T15:20:20Z</time>
   </trkpt>
   <trkpt lat="53.5602960" lon="-9.8910400">
    <ele>31.7</ele>
    <time>2025-12-27T15:20:25Z</time>
   </trkpt>
   <trkpt lat="53.5602270" lon="-9.8911290">
    <ele>31.7</ele>
    <time>2025-12-27T15:20:31Z</time>
   </trkpt>
   <trkpt lat="53.5601730" lon="-9.8912250">
    <ele>31.7</ele>
    <time>2025-12-27T15:20:36Z</time>
   </trkpt>
   <trkpt lat="53.5601460" lon="-9.8913400">
    <ele>31.7</ele>
    <time>2025-12-27T15:20:41Z</time>
   </trkpt>
   <trkpt lat="53.5601230" lon="-9.8914770">
    <ele>31.7</ele>
    <time>2025-12-27T15:20:46Z</time>
   </trkpt>
   <trkpt lat="53.5600870" lon="-9.8915890">
    <ele>31.7</ele>
    <time>2025-12-27T15:20:52Z</time>
   </trkpt>
   <trkpt lat="53.5600540" lon="-9.8916900">
    <ele>31.7</ele>
    <time>2025-12-27T15:20:57Z</time>
   </trkpt>
   <trkpt lat="53.5600180" lon="-9.8917900">
    <ele>31.7</ele>
    <time>2025-12-27T15:21:02Z</time>
   </trkpt>
   <trkpt lat="53.5599880" lon="-9.8918870">
    <ele>31.8</ele>
    <time>2025-12-27T15:21:08Z</time>
   </trkpt>
   <trkpt lat="53.5599780" lon="-9.8920020">
    <ele>31.7</ele>
    <time>2025-12-27T15:21:13Z</time>
   </trkpt>
   <trkpt lat="53.5599810" lon="-9.8921120">
    <ele>31.7</ele>
    <time>2025-12-27T15:21:18Z</time>
   </trkpt>
   <trkpt lat="53.5600260" lon="-9.8921020">
    <ele>32.2</ele>
    <time>2025-12-27T15:21:52Z</time>
   </trkpt>
   <trkpt lat="53.5600750" lon="-9.8921010">
    <ele>32.2</ele>
    <time>2025-12-27T15:22:15Z</time>
   </trkpt>
   <trkpt lat="53.5601190" lon="-9.8920820">
    <ele>32.2</ele>
    <time>2025-12-27T15:22:31Z</time>
   </trkpt>
   <trkpt lat="53.5601640" lon="-9.8920800">
    <ele>32.2</ele>
    <time>2025-12-27T15:23:25Z</time>
   </trkpt>
   <trkpt lat="53.5601180" lon="-9.8920710">
    <ele>32.2</ele>
    <time>2025-12-27T15:23:42Z</time>
   </trkpt>
   <trkpt lat="53.5601500" lon="-9.8919890">
    <ele>32.2</ele>
    <time>2025-12-27T15:24:50Z</time>
   </trkpt>
   <trkpt lat="53.5600940" lon="-9.8920340">
    <ele>32.2</ele>
    <time>2025-12-27T15:24:56Z</time>
   </trkpt>
   <trkpt lat="53.5601220" lon="-9.8920970">
    <ele>32.2</ele>
    <time>2025-12-27T15:25:05Z</time>
   </trkpt>
   <trkpt lat="53.5601640" lon="-9.8921300">
    <ele>32.2</ele>
    <time>2025-12-27T15:25:23Z</time>
   </trkpt>
   <trkpt lat="53.5602120" lon="-9.8921640">
    <ele>32.2</ele>
    <time>2025-12-27T15:25:31Z</time>
   </trkpt>
   <trkpt lat="53.5602510" lon="-9.8921240">
    <ele>32.2</ele>
    <time>2025-12-27T15:26:16Z</time>
   </trkpt>
   <trkpt lat="53.5602860" lon="-9.8921830">
    <ele>32.3</ele>
    <time>2025-12-27T15:26:50Z</time>
   </trkpt>
   <trkpt lat="53.5602400" lon="-9.8921910">
    <ele>32.2</ele>
    <time>2025-12-27T15:26:58Z</time>
   </trkpt>
   <trkpt lat="53.5601950" lon="-9.8921750">
    <ele>32.2</ele>
    <time>2025-12-27T15:27:19Z</time>
   </trkpt>
   <trkpt lat="53.5601500" lon="-9.8921810">
    <ele>32.3</ele>
    <time>2025-12-27T15:27:40Z</time>
   </trkpt>
   <trkpt lat="53.5601140" lon="-9.8922430">
    <ele>32.3</ele>
    <time>2025-12-27T15:28:24Z</time>
   </trkpt>
   <trkpt lat="53.5601110" lon="-9.8921630">
    <ele>32.3</ele>
    <time>2025-12-27T15:31:14Z</time>
   </trkpt>
   <trkpt lat="53.5600740" lon="-9.8921100">
    <ele>32.0</ele>
    <time>2025-12-27T15:31:59Z</time>
   </trkpt>
   <trkpt lat="53.5600490" lon="-9.8918910">
    <ele>31.7</ele>
    <time>2025-12-27T15:32:04Z</time>
   </trkpt>
   <trkpt lat="53.5600190" lon="-9.8917800">
    <ele>31.8</ele>
    <time>2025-12-27T15:32:09Z</time>
   </trkpt>
   <trkpt lat="53.5599930" lon="-9.8916750">
    <ele>31.8</ele>
    <time>2025-12-27T15:32:15Z</time>
   </trkpt>
   <trkpt lat="53.5599540" lon="-9.8915920">
    <ele>31.7</ele>
    <time>2025-12-27T15:32:20Z</time>
   </trkpt>
   <trkpt lat="53.5599050" lon="-9.8914990">
    <ele>31.6</ele>
    <time>2025-12-27T15:32:25Z</time>
   </trkpt>
   <trkpt lat="53.5598500" lon="-9.8914110">
    <ele>31.6</ele>
    <time>2025-12-27T15:32:30Z</time>
   </trkpt>
   <trkpt lat="53.5598090" lon="-9.8913180">
    <ele>31.6</ele>
    <time>2025-12-27T15:32:35Z</time>
   </trkpt>
   <trkpt lat="53.5597690" lon="-9.8913780">
    <ele>31.7</ele>
    <time>2025-12-27T15:32:41Z</time>
   </trkpt>
   <trkpt lat="53.5597100" lon="-9.8914440">
    <ele>31.8</ele>
    <time>2025-12-27T15:32:46Z</time>
   </trkpt>
   <trkpt lat="53.5596330" lon="-9.8914670">
    <ele>31.8</ele>
    <time>2025-12-27T15:32:52Z</time>
   </trkpt>
   <trkpt lat="53.5595770" lon="-9.8914290">
    <ele>31.8</ele>
    <time>2025-12-27T15:32:57Z</time>
   </trkpt>
   <trkpt lat="53.5595230" lon="-9.8913230">
    <ele>31.8</ele>
    <time>2025-12-27T15:33:02Z</time>
   </trkpt>
   <trkpt lat="53.5594670" lon="-9.8912810">
    <ele>31.8</ele>
    <time>2025-12-27T15:33:08Z</time>
   </trkpt>
   <trkpt lat="53.5594020" lon="-9.8913480">
    <ele>31.8</ele>
    <time>2025-12-27T15:33:13Z</time>
   </trkpt>
   <trkpt lat="53.5593270" lon="-9.8913850">
    <ele>31.8</ele>
    <time>2025-12-27T15:33:18Z</time>
   </trkpt>
   <trkpt lat="53.5592670" lon="-9.8914010">
    <ele>31.8</ele>
    <time>2025-12-27T15:33:23Z</time>
   </trkpt>
  </trkseg>
 </trk>
</gpx>
